PWSweather.com
Personal Weather Stations
Station Observations
KV9EWX
Winnebago, Il, Winnebago, IL 61088

Winnebago, IlWinnebago, IL 61088

Lat: 42.261175, Lon: -89.236369

Elevation: 892

Station Type: Lacrosse ws-2811

Latest ConditionsUpdated 8:50:23 AM CDT Monday, Sep 26, 2016
Currently Today's Max Today's Min Today's Average
Temperature 54.6°F12.6°C 55.7°F13.2°C 44.0°F6.7°C 50.7°F10.4°C
Dew Point 16.4°F-8.7°C 17.6°F-8.0°C -38.2°F-39.0°C -33.3°F-36.3°C
Winds 2.5 mph WSW4.0 kmh WSW 5.0 mph WSW8.0 kmh WSW - 1.2 mph 1.9 kmh
Wind Gusts 9.4 mph15.1 kmh 10.2 mph16.4 kmh - -
Humidity 22% 23% 1% 1%
Pressure 29.58 in1001.7 mb 29.58 in1001.7 mb 29.55 in1000.7 mb -
Hour Temp Dew Point Humidity Winds Wind Gusts Pressure Precip Precip Rate Daily Precip Total
08:50 AM 54.5°F12.5°C 14.2°F-9.9°C 20% 2.9 mph WSW4.7 kmh WSW 9.4 mph15.1 kmh 29.58 in1001.7 mb 0.00 in0.0 mm 0.00 in0.0 mm 0.00 in0.0 mm
08:49 AM 54.5°F12.5°C 11.8°F-11.2°C 18% 3.2 mph W5.1 kmh W 9.4 mph15.1 kmh 29.58 in1001.7 mb 0.00 in0.0 mm 0.00 in0.0 mm 0.00 in0.0 mm
08:48 AM 54.8°F12.7°C 17.6°F-8.0°C 23% 4.9 mph W7.9 kmh W 9.4 mph15.1 kmh 29.58 in1001.7 mb 0.00 in0.0 mm 0.00 in0.0 mm 0.00 in0.0 mm
08:47 AM 54.8°F12.7°C 12.0°F-11.1°C 18% 5.0 mph WSW8.0 kmh WSW 9.4 mph15.1 kmh 29.58 in1001.7 mb 0.00 in0.0 mm 0.00 in0.0 mm 0.00 in0.0 mm
08:46 AM 54.3°F12.4°C -6.1°F-21.2°C 8% 3.6 mph SW5.8 kmh SW 8.9 mph14.3 kmh 29.58 in1001.7 mb 0.00 in0.0 mm 0.00 in0.0 mm 0.00 in0.0 mm
08:45 AM 54.3°F12.4°C -8.8°F-22.7°C 7% 2.5 mph WSW4.0 kmh WSW 8.9 mph14.3 kmh 29.58 in1001.7 mb 0.00 in0.0 mm 0.00 in0.0 mm 0.00 in0.0 mm
08:44 AM 54.1°F12.3°C -15.1°F-26.2°C 5% 2.2 mph WSW3.5 kmh WSW 8.2 mph13.2 kmh 29.58 in1001.7 mb 0.00 in0.0 mm 0.00 in0.0 mm 0.00 in0.0 mm
08:43 AM 54.1°F12.3°C -26.8°F-32.7°C 2% 2.2 mph SW3.5 kmh SW 8.2 mph13.2 kmh 29.58 in1001.7 mb 0.00 in0.0 mm 0.00 in0.0 mm 0.00 in0.0 mm
08:42 AM 53.9°F12.2°C -27.0°F-32.8°C 2% 1.8 mph W2.9 kmh W 6.7 mph10.8 kmh 29.58 in1001.7 mb 0.00 in0.0 mm 0.00 in0.0 mm 0.00 in0.0 mm
08:41 AM 53.9°F12.2°C -22.6°F-30.3°C 3% 3.4 mph SW5.5 kmh SW 9.4 mph15.1 kmh 29.58 in1001.7 mb 0.00 in0.0 mm 0.00 in0.0 mm 0.00 in0.0 mm
08:40 AM 53.7°F12.1°C -22.8°F-30.4°C 3% 3.5 mph SW5.6 kmh SW 9.4 mph15.1 kmh 29.58 in1001.7 mb 0.00 in0.0 mm 0.00 in0.0 mm 0.00 in0.0 mm
08:39 AM 53.3°F11.8°C -32.2°F-35.7°C 1% 2.8 mph W4.5 kmh W 9.4 mph15.1 kmh 29.58 in1001.7 mb 0.00 in0.0 mm 0.00 in0.0 mm 0.00 in0.0 mm
08:38 AM 53.1°F11.7°C -32.3°F-35.7°C 1% 3.3 mph WSW5.3 kmh WSW 9.4 mph15.1 kmh 29.58 in1001.7 mb 0.00 in0.0 mm 0.00 in0.0 mm 0.00 in0.0 mm
08:37 AM 53.3°F11.8°C -6.9°F-21.6°C 8% 2.4 mph SW3.9 kmh SW 9.4 mph15.1 kmh 29.58 in1001.7 mb 0.00 in0.0 mm 0.00 in0.0 mm 0.00 in0.0 mm
08:36 AM 52.8°F11.6°C -32.5°F-35.8°C 1% 1.3 mph WSW2.1 kmh WSW 9.4 mph15.1 kmh 29.58 in1001.7 mb 0.00 in0.0 mm 0.00 in0.0 mm 0.00 in0.0 mm
08:35 AM 50.6°F10.3°C -33.9°F-36.6°C 1% 0.5 mph NW0.8 kmh NW 9.4 mph15.1 kmh 29.58 in1001.7 mb 0.00 in0.0 mm 0.00 in0.0 mm 0.00 in0.0 mm
08:34 AM 50.2°F10.1°C -34.1°F-36.7°C 1% 1.5 mph W2.4 kmh W 9.4 mph15.1 kmh 29.58 in1001.7 mb 0.00 in0.0 mm 0.00 in0.0 mm 0.00 in0.0 mm
08:33 AM 50.0°F10.0°C -34.3°F-36.8°C 1% 3.3 mph WSW5.3 kmh WSW 9.4 mph15.1 kmh 29.58 in1001.7 mb 0.00 in0.0 mm 0.00 in0.0 mm 0.00 in0.0 mm
08:32 AM 49.6°F9.8°C -34.6°F-37.0°C 1% 2.7 mph WNW4.3 kmh WNW 9.4 mph15.1 kmh 29.58 in1001.7 mb 0.00 in0.0 mm 0.00 in0.0 mm 0.00 in0.0 mm
08:31 AM 49.3°F9.6°C -34.8°F-37.1°C 1% 2.7 mph SW4.3 kmh SW 9.4 mph15.1 kmh 29.58 in1001.7 mb 0.00 in0.0 mm 0.00 in0.0 mm 0.00 in0.0 mm
08:30 AM 48.9°F9.4°C -35.0°F-37.2°C 1% 2.8 mph SW4.5 kmh SW 9.4 mph15.1 kmh 29.58 in1001.7 mb 0.00 in0.0 mm 0.00 in0.0 mm 0.00 in0.0 mm
08:29 AM 48.4°F9.1°C -35.3°F-37.4°C 1% 2.7 mph WSW4.3 kmh WSW 9.4 mph15.1 kmh 29.58 in1001.7 mb 0.00 in0.0 mm 0.00 in0.0 mm 0.00 in0.0 mm
08:28 AM 48.2°F9.0°C -35.5°F-37.5°C 1% 3.4 mph WSW5.5 kmh WSW 9.4 mph15.1 kmh 29.58 in1001.7 mb 0.00 in0.0 mm 0.00 in0.0 mm 0.00 in0.0 mm
08:27 AM 47.8°F8.8°C -35.7°F-37.6°C 1% 2.3 mph WSW3.7 kmh WSW 9.4 mph15.1 kmh 29.58 in1001.7 mb 0.00 in0.0 mm 0.00 in0.0 mm 0.00 in0.0 mm
08:26 AM 47.6°F8.7°C -35.8°F-37.7°C 1% 1.7 mph WSW2.7 kmh WSW 10.2 mph16.4 kmh 29.58 in1001.7 mb 0.00 in0.0 mm 0.00 in0.0 mm 0.00 in0.0 mm
08:25 AM 47.6°F8.7°C -35.8°F-37.7°C 1% 1.3 mph WSW2.1 kmh WSW 10.2 mph16.4 kmh 29.58 in1001.7 mb 0.00 in0.0 mm 0.00 in0.0 mm 0.00 in0.0 mm
08:24 AM 47.5°F8.6°C -35.9°F-37.7°C 1% 2.8 mph SW4.5 kmh SW 10.2 mph16.4 kmh 29.58 in1001.7 mb 0.00 in0.0 mm 0.00 in0.0 mm 0.00 in0.0 mm
08:23 AM 47.5°F8.6°C -35.9°F-37.7°C 1% 3.0 mph SW4.8 kmh SW 10.2 mph16.4 kmh 29.58 in1001.7 mb 0.00 in0.0 mm 0.00 in0.0 mm 0.00 in0.0 mm
08:22 AM 47.1°F8.4°C -36.2°F-37.9°C 1% 3.3 mph WSW5.3 kmh WSW 10.2 mph16.4 kmh 29.58 in1001.7 mb 0.00 in0.0 mm 0.00 in0.0 mm 0.00 in0.0 mm
08:21 AM 47.1°F8.4°C -36.2°F-37.9°C 1% 3.0 mph WSW4.8 kmh WSW 10.2 mph16.4 kmh 29.58 in1001.7 mb 0.00 in0.0 mm 0.00 in0.0 mm 0.00 in0.0 mm
08:20 AM 47.1°F8.4°C -36.2°F-37.9°C 1% 1.1 mph WSW1.8 kmh WSW 10.2 mph16.4 kmh 29.58 in1001.7 mb 0.00 in0.0 mm 0.00 in0.0 mm 0.00 in0.0 mm
08:19 AM 46.9°F8.3°C -36.3°F-37.9°C 1% 1.2 mph WSW1.9 kmh WSW 10.2 mph16.4 kmh 29.58 in1001.7 mb 0.00 in0.0 mm 0.00 in0.0 mm 0.00 in0.0 mm
08:18 AM 46.8°F8.2°C -36.4°F-38.0°C 1% 2.6 mph WSW4.2 kmh WSW 10.2 mph16.4 kmh 29.58 in1001.7 mb 0.00 in0.0 mm 0.00 in0.0 mm 0.00 in0.0 mm
08:17 AM 46.8°F8.2°C -36.4°F-38.0°C 1% 3.3 mph SW5.3 kmh SW 10.2 mph16.4 kmh 29.58 in1001.7 mb 0.00 in0.0 mm 0.00 in0.0 mm 0.00 in0.0 mm
08:16 AM 46.8°F8.2°C -36.4°F-38.0°C 1% 1.9 mph SW3.1 kmh SW 10.2 mph16.4 kmh 29.58 in1001.7 mb 0.00 in0.0 mm 0.00 in0.0 mm 0.00 in0.0 mm
08:15 AM 46.7°F8.2°C -36.5°F-38.1°C 1% 1.7 mph SW2.7 kmh SW 6.7 mph10.8 kmh 29.58 in1001.7 mb 0.00 in0.0 mm 0.00 in0.0 mm 0.00 in0.0 mm
08:14 AM 46.7°F8.2°C -36.5°F-38.1°C 1% 2.4 mph SW3.9 kmh SW 6.7 mph10.8 kmh 29.58 in1001.7 mb 0.00 in0.0 mm 0.00 in0.0 mm 0.00 in0.0 mm
08:13 AM 46.5°F8.1°C -36.6°F-38.1°C 1% 2.4 mph WSW3.9 kmh WSW 6.7 mph10.8 kmh 29.58 in1001.7 mb 0.00 in0.0 mm 0.00 in0.0 mm 0.00 in0.0 mm
08:12 AM 46.3°F7.9°C -36.7°F-38.2°C 1% 2.3 mph SW3.7 kmh SW 6.7 mph10.8 kmh 29.58 in1001.7 mb 0.00 in0.0 mm 0.00 in0.0 mm 0.00 in0.0 mm
08:11 AM 46.3°F7.9°C -36.7°F-38.2°C 1% 2.0 mph SW3.2 kmh SW 5.4 mph8.7 kmh 29.58 in1001.7 mb 0.00 in0.0 mm 0.00 in0.0 mm 0.00 in0.0 mm
08:10 AM 46.1°F7.8°C -36.9°F-38.3°C 1% 2.0 mph WSW3.2 kmh WSW 5.4 mph8.7 kmh 29.58 in1001.7 mb 0.00 in0.0 mm 0.00 in0.0 mm 0.00 in0.0 mm
08:09 AM 45.9°F7.7°C -37.0°F-38.3°C 1% 2.7 mph SW4.3 kmh SW 5.4 mph8.7 kmh 29.58 in1001.7 mb 0.00 in0.0 mm 0.00 in0.0 mm 0.00 in0.0 mm
08:08 AM 45.9°F7.7°C -37.0°F-38.3°C 1% 1.9 mph SW3.1 kmh SW 5.4 mph8.7 kmh 29.58 in1001.7 mb 0.00 in0.0 mm 0.00 in0.0 mm 0.00 in0.0 mm
08:07 AM 45.8°F7.7°C -37.0°F-38.3°C 1% 0.5 mph SW0.8 kmh SW 4.4 mph7.1 kmh 29.58 in1001.7 mb 0.00 in0.0 mm 0.00 in0.0 mm 0.00 in0.0 mm
08:06 AM 45.8°F7.7°C -37.0°F-38.3°C 1% 0.3 mph SW0.5 kmh SW 4.7 mph7.6 kmh 29.58 in1001.7 mb 0.00 in0.0 mm 0.00 in0.0 mm 0.00 in0.0 mm
08:05 AM 45.8°F7.7°C -37.0°F-38.3°C 1% 1.3 mph WSW2.1 kmh WSW 4.7 mph7.6 kmh 29.58 in1001.7 mb 0.00 in0.0 mm 0.00 in0.0 mm 0.00 in0.0 mm
08:04 AM 45.8°F7.7°C -37.0°F-38.3°C 1% 1.7 mph WSW2.7 kmh WSW 4.7 mph7.6 kmh 29.58 in1001.7 mb 0.00 in0.0 mm 0.00 in0.0 mm 0.00 in0.0 mm
08:03 AM 45.6°F7.6°C -37.2°F-38.4°C 1% 1.1 mph WSW1.8 kmh WSW 5.4 mph8.7 kmh 29.58 in1001.7 mb 0.00 in0.0 mm 0.00 in0.0 mm 0.00 in0.0 mm
08:02 AM 45.4°F7.4°C -37.3°F-38.5°C 1% 0.7 mph WSW1.1 kmh WSW 5.4 mph8.7 kmh 29.58 in1001.7 mb 0.00 in0.0 mm 0.00 in0.0 mm 0.00 in0.0 mm
08:01 AM 45.4°F7.4°C -37.3°F-38.5°C 1% 1.4 mph SW2.3 kmh SW 5.4 mph8.7 kmh 29.58 in1001.7 mb 0.00 in0.0 mm 0.00 in0.0 mm 0.00 in0.0 mm
08:00 AM 45.4°F7.4°C -37.3°F-38.5°C 1% 2.0 mph SW3.2 kmh SW 5.4 mph8.7 kmh 29.58 in1001.7 mb 0.00 in0.0 mm 0.00 in0.0 mm 0.00 in0.0 mm
07:59 AM 45.2°F7.3°C -37.4°F-38.6°C 1% 1.2 mph SW1.9 kmh SW 5.4 mph8.7 kmh 29.58 in1001.7 mb 0.00 in0.0 mm 0.00 in0.0 mm 0.00 in0.0 mm
07:58 AM 45.2°F7.3°C -37.4°F-38.6°C 1% 1.2 mph SW1.9 kmh SW 5.4 mph8.7 kmh 29.58 in1001.7 mb 0.00 in0.0 mm 0.00 in0.0 mm 0.00 in0.0 mm
07:57 AM 45.0°F7.2°C -37.6°F-38.7°C 1% 2.1 mph SW3.4 kmh SW 5.4 mph8.7 kmh 29.58 in1001.7 mb 0.00 in0.0 mm 0.00 in0.0 mm 0.00 in0.0 mm
07:56 AM 45.0°F7.2°C -37.6°F-38.7°C 1% 1.9 mph SW3.1 kmh SW 5.4 mph8.7 kmh 29.58 in1001.7 mb 0.00 in0.0 mm 0.00 in0.0 mm 0.00 in0.0 mm
07:55 AM 45.0°F7.2°C -37.6°F-38.7°C 1% 2.2 mph SSW3.5 kmh SSW 5.4 mph8.7 kmh 29.58 in1001.7 mb 0.00 in0.0 mm 0.00 in0.0 mm 0.00 in0.0 mm
07:54 AM 44.9°F7.2°C -37.6°F-38.7°C 1% 1.7 mph SW2.7 kmh SW 5.4 mph8.7 kmh 29.58 in1001.7 mb 0.00 in0.0 mm 0.00 in0.0 mm 0.00 in0.0 mm
07:53 AM 44.9°F7.2°C -37.6°F-38.7°C 1% 0.9 mph WSW1.4 kmh WSW 2.8 mph4.5 kmh 29.58 in1001.7 mb 0.00 in0.0 mm 0.00 in0.0 mm 0.00 in0.0 mm
07:52 AM 44.7°F7.1°C -37.7°F-38.7°C 1% 1.1 mph WSW1.8 kmh WSW 2.8 mph4.5 kmh 29.58 in1001.7 mb 0.00 in0.0 mm 0.00 in0.0 mm 0.00 in0.0 mm
07:51 AM 44.7°F7.1°C -37.7°F-38.7°C 1% 1.2 mph WSW1.9 kmh WSW 4.7 mph7.6 kmh 29.58 in1001.7 mb 0.00 in0.0 mm 0.00 in0.0 mm 0.00 in0.0 mm
07:50 AM 44.7°F7.1°C -37.7°F-38.7°C 1% 1.0 mph WSW1.6 kmh WSW 4.7 mph7.6 kmh 29.58 in1001.7 mb 0.00 in0.0 mm 0.00 in0.0 mm 0.00 in0.0 mm
07:49 AM 44.5°F6.9°C -37.9°F-38.8°C 1% 0.9 mph WSW1.4 kmh WSW 4.7 mph7.6 kmh 29.58 in1001.7 mb 0.00 in0.0 mm 0.00 in0.0 mm 0.00 in0.0 mm
07:48 AM 44.5°F6.9°C -37.9°F-38.8°C 1% 0.9 mph WSW1.4 kmh WSW 4.7 mph7.6 kmh 29.58 in1001.7 mb 0.00 in0.0 mm 0.00 in0.0 mm 0.00 in0.0 mm
07:47 AM 44.5°F6.9°C -37.9°F-38.8°C 1% 0.7 mph WSW1.1 kmh WSW 4.7 mph7.6 kmh 29.58 in1001.7 mb 0.00 in0.0 mm 0.00 in0.0 mm 0.00 in0.0 mm
07:46 AM 44.5°F6.9°C -37.9°F-38.8°C 1% 0.5 mph WSW0.8 kmh WSW 4.7 mph7.6 kmh 29.58 in1001.7 mb 0.00 in0.0 mm 0.00 in0.0 mm 0.00 in0.0 mm
07:45 AM 44.5°F6.9°C -37.9°F-38.8°C 1% 0.7 mph WNW1.1 kmh WNW 4.7 mph7.6 kmh 29.58 in1001.7 mb 0.00 in0.0 mm 0.00 in0.0 mm 0.00 in0.0 mm
07:44 AM 44.3°F6.8°C -38.0°F-38.9°C 1% 0.8 mph WNW1.3 kmh WNW 4.7 mph7.6 kmh 29.58 in1001.7 mb 0.00 in0.0 mm 0.00 in0.0 mm 0.00 in0.0 mm
07:43 AM 44.3°F6.8°C -38.0°F-38.9°C 1% 1.7 mph SW2.7 kmh SW 4.7 mph7.6 kmh 29.58 in1001.7 mb 0.00 in0.0 mm 0.00 in0.0 mm 0.00 in0.0 mm
07:42 AM 44.3°F6.8°C -38.0°F-38.9°C 1% 1.2 mph SW1.9 kmh SW 4.7 mph7.6 kmh 29.58 in1001.7 mb 0.00 in0.0 mm 0.00 in0.0 mm 0.00 in0.0 mm
07:41 AM 44.3°F6.8°C -38.0°F-38.9°C 1% 0.8 mph SW1.3 kmh SW 2.3 mph3.7 kmh 29.58 in1001.7 mb 0.00 in0.0 mm 0.00 in0.0 mm 0.00 in0.0 mm
07:40 AM 44.3°F6.8°C -38.0°F-38.9°C 1% 1.1 mph SW1.8 kmh SW 2.8 mph4.5 kmh 29.58 in1001.7 mb 0.00 in0.0 mm 0.00 in0.0 mm 0.00 in0.0 mm
07:39 AM 44.3°F6.8°C -38.0°F-38.9°C 1% 0.7 mph WSW1.1 kmh WSW 2.8 mph4.5 kmh 29.58 in1001.7 mb 0.00 in0.0 mm 0.00 in0.0 mm 0.00 in0.0 mm
07:38 AM 44.3°F6.8°C -38.0°F-38.9°C 1% 0.6 mph WSW1.0 kmh WSW 2.8 mph4.5 kmh 29.58 in1001.7 mb 0.00 in0.0 mm 0.00 in0.0 mm 0.00 in0.0 mm
07:37 AM 44.1°F6.7°C -38.1°F-38.9°C 1% 0.7 mph WSW1.1 kmh WSW 2.8 mph4.5 kmh 29.58 in1001.7 mb 0.00 in0.0 mm 0.00 in0.0 mm 0.00 in0.0 mm
07:36 AM 44.1°F6.7°C -38.1°F-38.9°C 1% 0.5 mph SSW0.8 kmh SSW 2.8 mph4.5 kmh 29.58 in1001.7 mb 0.00 in0.0 mm 0.00 in0.0 mm 0.00 in0.0 mm
07:35 AM 44.1°F6.7°C -38.1°F-38.9°C 1% 0.4 mph S0.6 kmh S 2.8 mph4.5 kmh 29.58 in1001.7 mb 0.00 in0.0 mm 0.00 in0.0 mm 0.00 in0.0 mm
07:34 AM 44.1°F6.7°C -38.1°F-38.9°C 1% 0.5 mph WSW0.8 kmh WSW 2.8 mph4.5 kmh 29.58 in1001.7 mb 0.00 in0.0 mm 0.00 in0.0 mm 0.00 in0.0 mm
07:33 AM 44.1°F6.7°C -38.1°F-38.9°C 1% 0.6 mph WSW1.0 kmh WSW 2.8 mph4.5 kmh 29.58 in1001.7 mb 0.00 in0.0 mm 0.00 in0.0 mm 0.00 in0.0 mm
07:32 AM 44.0°F6.7°C -38.2°F-39.0°C 1% 1.0 mph SW1.6 kmh SW 2.8 mph4.5 kmh 29.58 in1001.7 mb 0.00 in0.0 mm 0.00 in0.0 mm 0.00 in0.0 mm
07:31 AM 44.0°F6.7°C -38.2°F-39.0°C 1% 0.9 mph SW1.4 kmh SW 2.8 mph4.5 kmh 29.58 in1001.7 mb 0.00 in0.0 mm 0.00 in0.0 mm 0.00 in0.0 mm
07:30 AM 44.1°F6.7°C -38.1°F-38.9°C 1% 0.5 mph SSW0.8 kmh SSW 1.6 mph2.6 kmh 29.58 in1001.7 mb 0.00 in0.0 mm 0.00 in0.0 mm 0.00 in0.0 mm
07:29 AM 44.0°F6.7°C -38.2°F-39.0°C 1% 0.5 mph SW0.8 kmh SW 1.6 mph2.6 kmh 29.58 in1001.7 mb 0.00 in0.0 mm 0.00 in0.0 mm 0.00 in0.0 mm
07:28 AM 44.1°F6.7°C -38.1°F-38.9°C 1% 0.5 mph SW0.8 kmh SW 1.6 mph2.6 kmh 29.58 in1001.7 mb 0.00 in0.0 mm 0.00 in0.0 mm 0.00 in0.0 mm
07:27 AM 44.1°F6.7°C -38.1°F-38.9°C 1% 0.4 mph S0.6 kmh S 1.2 mph1.9 kmh 29.58 in1001.7 mb 0.00 in0.0 mm 0.00 in0.0 mm 0.00 in0.0 mm
07:26 AM 44.1°F6.7°C -38.1°F-38.9°C 1% 0.4 mph SSW0.6 kmh SSW 1.2 mph1.9 kmh 29.58 in1001.7 mb 0.00 in0.0 mm 0.00 in0.0 mm 0.00 in0.0 mm
07:25 AM 44.1°F6.7°C -38.1°F-38.9°C 1% 0.4 mph SW0.6 kmh SW 4.4 mph7.1 kmh 29.58 in1001.7 mb 0.00 in0.0 mm 0.00 in0.0 mm 0.00 in0.0 mm
07:24 AM 44.1°F6.7°C -38.1°F-38.9°C 1% 0.3 mph SW0.5 kmh SW 4.4 mph7.1 kmh 29.58 in1001.7 mb 0.00 in0.0 mm 0.00 in0.0 mm 0.00 in0.0 mm
07:23 AM 44.1°F6.7°C -38.1°F-38.9°C 1% 0.4 mph SW0.6 kmh SW 4.4 mph7.1 kmh 29.58 in1001.7 mb 0.00 in0.0 mm 0.00 in0.0 mm 0.00 in0.0 mm
07:22 AM 44.1°F6.7°C -38.1°F-38.9°C 1% 0.4 mph WSW0.6 kmh WSW 4.4 mph7.1 kmh 29.58 in1001.7 mb 0.00 in0.0 mm 0.00 in0.0 mm 0.00 in0.0 mm
07:21 AM 44.1°F6.7°C -38.1°F-38.9°C 1% 0.6 mph SW1.0 kmh SW 4.4 mph7.1 kmh 29.58 in1001.7 mb 0.00 in0.0 mm 0.00 in0.0 mm 0.00 in0.0 mm
07:20 AM 44.1°F6.7°C -38.1°F-38.9°C 1% 0.6 mph SW1.0 kmh SW 4.4 mph7.1 kmh 29.58 in1001.7 mb 0.00 in0.0 mm 0.00 in0.0 mm 0.00 in0.0 mm
07:19 AM 44.1°F6.7°C -38.1°F-38.9°C 1% 0.4 mph SW0.6 kmh SW 4.4 mph7.1 kmh 29.58 in1001.7 mb 0.00 in0.0 mm 0.00 in0.0 mm 0.00 in0.0 mm
07:18 AM 44.3°F6.8°C -38.0°F-38.9°C 1% 0.4 mph WSW0.6 kmh WSW 4.4 mph7.1 kmh 29.58 in1001.7 mb 0.00 in0.0 mm 0.00 in0.0 mm 0.00 in0.0 mm
07:17 AM 44.1°F6.7°C -38.1°F-38.9°C 1% 0.9 mph WSW1.4 kmh WSW 4.4 mph7.1 kmh 29.58 in1001.7 mb 0.00 in0.0 mm 0.00 in0.0 mm 0.00 in0.0 mm
07:16 AM 44.1°F6.7°C -38.1°F-38.9°C 1% 0.9 mph WSW1.4 kmh WSW 4.4 mph7.1 kmh 29.58 in1001.7 mb 0.00 in0.0 mm 0.00 in0.0 mm 0.00 in0.0 mm
07:15 AM 44.3°F6.8°C -38.0°F-38.9°C 1% 0.5 mph S0.8 kmh S 1.9 mph3.1 kmh 29.58 in1001.7 mb 0.00 in0.0 mm 0.00 in0.0 mm 0.00 in0.0 mm
07:14 AM 44.3°F6.8°C -38.0°F-38.9°C 1% 0.6 mph S1.0 kmh S 1.9 mph3.1 kmh 29.58 in1001.7 mb 0.00 in0.0 mm 0.00 in0.0 mm 0.00 in0.0 mm
07:13 AM 44.3°F6.8°C -38.0°F-38.9°C 1% 0.6 mph SW1.0 kmh SW 1.9 mph3.1 kmh 29.58 in1001.7 mb 0.00 in0.0 mm 0.00 in0.0 mm 0.00 in0.0 mm
07:12 AM 44.3°F6.8°C -38.0°F-38.9°C 1% 0.9 mph SW1.4 kmh SW 1.9 mph3.1 kmh 29.58 in1001.7 mb 0.00 in0.0 mm 0.00 in0.0 mm 0.00 in0.0 mm
07:11 AM 44.3°F6.8°C -38.0°F-38.9°C 1% 1.0 mph SW1.6 kmh SW 1.9 mph3.1 kmh 29.58 in1001.7 mb 0.00 in0.0 mm 0.00 in0.0 mm 0.00 in0.0 mm
07:10 AM 44.3°F6.8°C -38.0°F-38.9°C 1% 0.7 mph WSW1.1 kmh WSW 1.9 mph3.1 kmh 29.58 in1001.7 mb 0.00 in0.0 mm 0.00 in0.0 mm 0.00 in0.0 mm
07:09 AM 44.3°F6.8°C -38.0°F-38.9°C 1% 0.4 mph W0.6 kmh W 1.6 mph2.6 kmh 29.58 in1001.7 mb 0.00 in0.0 mm 0.00 in0.0 mm 0.00 in0.0 mm
07:08 AM 44.3°F6.8°C -38.0°F-38.9°C 1% 0.4 mph WSW0.6 kmh WSW 1.6 mph2.6 kmh 29.58 in1001.7 mb 0.00 in0.0 mm 0.00 in0.0 mm 0.00 in0.0 mm
07:07 AM 44.3°F6.8°C -38.0°F-38.9°C 1% 0.3 mph WSW0.5 kmh WSW 1.6 mph2.6 kmh 29.58 in1001.7 mb 0.00 in0.0 mm 0.00 in0.0 mm 0.00 in0.0 mm
07:06 AM 44.3°F6.8°C -38.0°F-38.9°C 1% 0.4 mph WSW0.6 kmh WSW 1.6 mph2.6 kmh 29.58 in1001.7 mb 0.00 in0.0 mm 0.00 in0.0 mm 0.00 in0.0 mm
07:05 AM 44.3°F6.8°C -38.0°F-38.9°C 1% 0.8 mph W1.3 kmh W 1.6 mph2.6 kmh 29.58 in1001.7 mb 0.00 in0.0 mm 0.00 in0.0 mm 0.00 in0.0 mm
07:04 AM 44.3°F6.8°C -38.0°F-38.9°C 1% 0.5 mph WNW0.8 kmh WNW 1.6 mph2.6 kmh 29.58 in1001.7 mb 0.00 in0.0 mm 0.00 in0.0 mm 0.00 in0.0 mm
07:03 AM 44.3°F6.8°C -38.0°F-38.9°C 1% 0.4 mph SW0.6 kmh SW 1.6 mph2.6 kmh 29.58 in1001.7 mb 0.00 in0.0 mm 0.00 in0.0 mm 0.00 in0.0 mm
07:02 AM 44.3°F6.8°C -38.0°F-38.9°C 1% 0.5 mph S0.8 kmh S 1.9 mph3.1 kmh 29.58 in1001.7 mb 0.00 in0.0 mm 0.00 in0.0 mm 0.00 in0.0 mm
07:01 AM 44.3°F6.8°C -38.0°F-38.9°C 1% 0.6 mph S1.0 kmh S 4.7 mph7.6 kmh 29.58 in1001.7 mb 0.00 in0.0 mm 0.00 in0.0 mm 0.00 in0.0 mm
07:00 AM 44.3°F6.8°C -38.0°F-38.9°C 1% 0.5 mph SSW0.8 kmh SSW 4.7 mph7.6 kmh 29.58 in1001.7 mb 0.00 in0.0 mm 0.00 in0.0 mm 0.00 in0.0 mm
06:59 AM 44.3°F6.8°C -38.0°F-38.9°C 1% 0.4 mph WSW0.6 kmh WSW 4.7 mph7.6 kmh 29.58 in1001.7 mb 0.00 in0.0 mm 0.00 in0.0 mm 0.00 in0.0 mm
06:58 AM 44.3°F6.8°C -38.0°F-38.9°C 1% 0.4 mph WSW0.6 kmh WSW 4.7 mph7.6 kmh 29.58 in1001.7 mb 0.00 in0.0 mm 0.00 in0.0 mm 0.00 in0.0 mm
06:57 AM 44.3°F6.8°C -38.0°F-38.9°C 1% 0.4 mph WSW0.6 kmh WSW 4.7 mph7.6 kmh 29.58 in1001.7 mb 0.00 in0.0 mm 0.00 in0.0 mm 0.00 in0.0 mm
06:56 AM 44.3°F6.8°C -38.0°F-38.9°C 1% 0.4 mph WSW0.6 kmh WSW 4.7 mph7.6 kmh 29.58 in1001.7 mb 0.00 in0.0 mm 0.00 in0.0 mm 0.00 in0.0 mm
06:55 AM 44.3°F6.8°C -38.0°F-38.9°C 1% 0.4 mph S0.6 kmh S 4.7 mph7.6 kmh 29.58 in1001.7 mb 0.00 in0.0 mm 0.00 in0.0 mm 0.00 in0.0 mm
06:54 AM 44.5°F6.9°C -37.9°F-38.8°C 1% 0.4 mph S0.6 kmh S 4.7 mph7.6 kmh 29.58 in1001.7 mb 0.00 in0.0 mm 0.00 in0.0 mm 0.00 in0.0 mm
06:53 AM 44.5°F6.9°C -37.9°F-38.8°C 1% 1.8 mph SW2.9 kmh SW 4.7 mph7.6 kmh 29.58 in1001.7 mb 0.00 in0.0 mm 0.00 in0.0 mm 0.00 in0.0 mm
06:52 AM 44.3°F6.8°C -38.0°F-38.9°C 1% 1.5 mph SSW2.4 kmh SSW 4.7 mph7.6 kmh 29.58 in1001.7 mb 0.00 in0.0 mm 0.00 in0.0 mm 0.00 in0.0 mm
06:51 AM 44.5°F6.9°C -37.9°F-38.8°C 1% 0.5 mph WSW0.8 kmh WSW 1.9 mph3.1 kmh 29.58 in1001.7 mb 0.00 in0.0 mm 0.00 in0.0 mm 0.00 in0.0 mm
06:50 AM 44.5°F6.9°C -37.9°F-38.8°C 1% 0.5 mph WSW0.8 kmh WSW 1.9 mph3.1 kmh 29.58 in1001.7 mb 0.00 in0.0 mm 0.00 in0.0 mm 0.00 in0.0 mm
06:49 AM 44.5°F6.9°C -37.9°F-38.8°C 1% 0.5 mph WSW0.8 kmh WSW 1.9 mph3.1 kmh 29.58 in1001.7 mb 0.00 in0.0 mm 0.00 in0.0 mm 0.00 in0.0 mm
06:47 AM 44.7°F7.1°C -37.7°F-38.7°C 1% 0.9 mph SW1.4 kmh SW 1.9 mph3.1 kmh 29.58 in1001.7 mb 0.00 in0.0 mm 0.00 in0.0 mm 0.00 in0.0 mm
06:46 AM 44.5°F6.9°C -37.9°F-38.8°C 1% 1.0 mph SW1.6 kmh SW 1.9 mph3.1 kmh 29.58 in1001.7 mb 0.00 in0.0 mm 0.00 in0.0 mm 0.00 in0.0 mm
06:45 AM 44.7°F7.1°C -37.7°F-38.7°C 1% 0.7 mph WSW1.1 kmh WSW 1.9 mph3.1 kmh 29.57 in1001.4 mb 0.00 in0.0 mm 0.00 in0.0 mm 0.00 in0.0 mm
06:44 AM 44.7°F7.1°C -37.7°F-38.7°C 1% 0.6 mph WSW1.0 kmh WSW 1.2 mph1.9 kmh 29.58 in1001.7 mb 0.00 in0.0 mm 0.00 in0.0 mm 0.00 in0.0 mm
06:43 AM 44.7°F7.1°C -37.7°F-38.7°C 1% 0.6 mph WSW1.0 kmh WSW 1.9 mph3.1 kmh 29.58 in1001.7 mb 0.00 in0.0 mm 0.00 in0.0 mm 0.00 in0.0 mm
06:42 AM 44.7°F7.1°C -37.7°F-38.7°C 1% 0.3 mph SW0.5 kmh SW 1.9 mph3.1 kmh 29.58 in1001.7 mb 0.00 in0.0 mm 0.00 in0.0 mm 0.00 in0.0 mm
06:41 AM 44.7°F7.1°C -37.7°F-38.7°C 1% 0.3 mph SW0.5 kmh SW 1.9 mph3.1 kmh 29.58 in1001.7 mb 0.00 in0.0 mm 0.00 in0.0 mm 0.00 in0.0 mm
06:40 AM 44.9°F7.2°C -37.6°F-38.7°C 1% 0.3 mph SW0.5 kmh SW 1.9 mph3.1 kmh 29.58 in1001.7 mb 0.00 in0.0 mm 0.00 in0.0 mm 0.00 in0.0 mm
06:39 AM 44.9°F7.2°C -37.6°F-38.7°C 1% 0.3 mph SW0.5 kmh SW 1.9 mph3.1 kmh 29.58 in1001.7 mb 0.00 in0.0 mm 0.00 in0.0 mm 0.00 in0.0 mm
06:38 AM 44.9°F7.2°C -37.6°F-38.7°C 1% 0.3 mph WSW0.5 kmh WSW 1.9 mph3.1 kmh 29.58 in1001.7 mb 0.00 in0.0 mm 0.00 in0.0 mm 0.00 in0.0 mm
06:37 AM 45.0°F7.2°C -37.6°F-38.7°C 1% 0.3 mph WSW0.5 kmh WSW 1.9 mph3.1 kmh 29.58 in1001.7 mb 0.00 in0.0 mm 0.00 in0.0 mm 0.00 in0.0 mm
06:36 AM 45.0°F7.2°C -37.6°F-38.7°C 1% 0.3 mph SW0.5 kmh SW 1.9 mph3.1 kmh 29.58 in1001.7 mb 0.00 in0.0 mm 0.00 in0.0 mm 0.00 in0.0 mm
06:35 AM 45.0°F7.2°C -37.6°F-38.7°C 1% 0.9 mph SW1.4 kmh SW 1.9 mph3.1 kmh 29.58 in1001.7 mb 0.00 in0.0 mm 0.00 in0.0 mm 0.00 in0.0 mm
06:34 AM 45.0°F7.2°C -37.6°F-38.7°C 1% 1.2 mph SW1.9 kmh SW 1.9 mph3.1 kmh 29.57 in1001.4 mb 0.00 in0.0 mm 0.00 in0.0 mm 0.00 in0.0 mm
06:33 AM 45.0°F7.2°C -37.6°F-38.7°C 1% 0.4 mph SW0.6 kmh SW 0.7 mph1.1 kmh 29.57 in1001.4 mb 0.00 in0.0 mm 0.00 in0.0 mm 0.00 in0.0 mm
06:32 AM 45.2°F7.3°C -37.4°F-38.6°C 1% 0.4 mph SW0.6 kmh SW 0.7 mph1.1 kmh 29.57 in1001.4 mb 0.00 in0.0 mm 0.00 in0.0 mm 0.00 in0.0 mm
06:31 AM 45.2°F7.3°C -37.4°F-38.6°C 1% 0.4 mph SW0.6 kmh SW 0.7 mph1.1 kmh 29.58 in1001.7 mb 0.00 in0.0 mm 0.00 in0.0 mm 0.00 in0.0 mm
06:30 AM 45.2°F7.3°C -37.4°F-38.6°C 1% 0.3 mph WSW0.5 kmh WSW 0.7 mph1.1 kmh 29.57 in1001.4 mb 0.00 in0.0 mm 0.00 in0.0 mm 0.00 in0.0 mm
06:29 AM 45.4°F7.4°C -37.3°F-38.5°C 1% 0.3 mph SW0.5 kmh SW 0.7 mph1.1 kmh 29.57 in1001.4 mb 0.00 in0.0 mm 0.00 in0.0 mm 0.00 in0.0 mm
06:28 AM 45.4°F7.4°C -37.3°F-38.5°C 1% 0.3 mph SSE0.5 kmh SSE 0.7 mph1.1 kmh 29.57 in1001.4 mb 0.00 in0.0 mm 0.00 in0.0 mm 0.00 in0.0 mm
06:27 AM 45.4°F7.4°C -37.3°F-38.5°C 1% 0.3 mph S0.5 kmh S 0.7 mph1.1 kmh 29.57 in1001.4 mb 0.00 in0.0 mm 0.00 in0.0 mm 0.00 in0.0 mm
06:26 AM 45.4°F7.4°C -37.3°F-38.5°C 1% 0.3 mph SSW0.5 kmh SSW 0.7 mph1.1 kmh 29.57 in1001.4 mb 0.00 in0.0 mm 0.00 in0.0 mm 0.00 in0.0 mm
06:25 AM 45.6°F7.6°C -37.2°F-38.4°C 1% 0.3 mph SE0.5 kmh SE 0.7 mph1.1 kmh 29.57 in1001.4 mb 0.00 in0.0 mm 0.00 in0.0 mm 0.00 in0.0 mm
06:24 AM 45.6°F7.6°C -37.2°F-38.4°C 1% 0.3 mph SE0.5 kmh SE 0.7 mph1.1 kmh 29.57 in1001.4 mb 0.00 in0.0 mm 0.00 in0.0 mm 0.00 in0.0 mm
06:23 AM 45.8°F7.7°C -37.0°F-38.3°C 1% 0.4 mph SSE0.6 kmh SSE 0.7 mph1.1 kmh 29.57 in1001.4 mb 0.00 in0.0 mm 0.00 in0.0 mm 0.00 in0.0 mm
06:22 AM 45.8°F7.7°C -37.0°F-38.3°C 1% 0.3 mph SE0.5 kmh SE 0.7 mph1.1 kmh 29.57 in1001.4 mb 0.00 in0.0 mm 0.00 in0.0 mm 0.00 in0.0 mm
06:21 AM 45.8°F7.7°C -37.0°F-38.3°C 1% 0.3 mph SE0.5 kmh SE 0.7 mph1.1 kmh 29.57 in1001.4 mb 0.00 in0.0 mm 0.00 in0.0 mm 0.00 in0.0 mm
06:20 AM 45.8°F7.7°C -37.0°F-38.3°C 1% 0.3 mph SE0.5 kmh SE 0.7 mph1.1 kmh 29.57 in1001.4 mb 0.00 in0.0 mm 0.00 in0.0 mm 0.00 in0.0 mm
06:19 AM 45.8°F7.7°C -37.0°F-38.3°C 1% 0.3 mph S0.5 kmh S 0.7 mph1.1 kmh 29.57 in1001.4 mb 0.00 in0.0 mm 0.00 in0.0 mm 0.00 in0.0 mm
06:18 AM 45.9°F7.7°C -37.0°F-38.3°C 1% 0.3 mph S0.5 kmh S 0.7 mph1.1 kmh 29.57 in1001.4 mb 0.00 in0.0 mm 0.00 in0.0 mm 0.00 in0.0 mm
06:17 AM 45.9°F7.7°C -37.0°F-38.3°C 1% 0.3 mph SSE0.5 kmh SSE 0.7 mph1.1 kmh 29.57 in1001.4 mb 0.00 in0.0 mm 0.00 in0.0 mm 0.00 in0.0 mm
06:16 AM 46.1°F7.8°C -36.9°F-38.3°C 1% 0.4 mph SSW0.6 kmh SSW 0.7 mph1.1 kmh 29.57 in1001.4 mb 0.00 in0.0 mm 0.00 in0.0 mm 0.00 in0.0 mm
06:15 AM 46.1°F7.8°C -36.9°F-38.3°C 1% 0.5 mph SW0.8 kmh SW 0.7 mph1.1 kmh 29.57 in1001.4 mb 0.00 in0.0 mm 0.00 in0.0 mm 0.00 in0.0 mm
06:14 AM 46.1°F7.8°C -36.9°F-38.3°C 1% 0.3 mph SW0.5 kmh SW 1.2 mph1.9 kmh 29.57 in1001.4 mb 0.00 in0.0 mm 0.00 in0.0 mm 0.00 in0.0 mm
06:13 AM 46.1°F7.8°C -36.9°F-38.3°C 1% 0.4 mph S0.6 kmh S 1.2 mph1.9 kmh 29.57 in1001.4 mb 0.00 in0.0 mm 0.00 in0.0 mm 0.00 in0.0 mm
06:12 AM 46.3°F7.9°C -36.7°F-38.2°C 1% 0.5 mph SSE0.8 kmh SSE 1.2 mph1.9 kmh 29.58 in1001.7 mb 0.00 in0.0 mm 0.00 in0.0 mm 0.00 in0.0 mm
06:11 AM 46.3°F7.9°C -36.7°F-38.2°C 1% 0.6 mph SSW1.0 kmh SSW 1.2 mph1.9 kmh 29.57 in1001.4 mb 0.00 in0.0 mm 0.00 in0.0 mm 0.00 in0.0 mm
06:10 AM 46.3°F7.9°C -36.7°F-38.2°C 1% 0.6 mph WSW1.0 kmh WSW 1.2 mph1.9 kmh 29.57 in1001.4 mb 0.00 in0.0 mm 0.00 in0.0 mm 0.00 in0.0 mm
06:09 AM 46.3°F7.9°C -36.7°F-38.2°C 1% Calm Calm 1.2 mph1.9 kmh 29.58 in1001.7 mb 0.00 in0.0 mm 0.00 in0.0 mm 0.00 in0.0 mm
06:08 AM 46.3°F7.9°C -36.7°F-38.2°C 1% 0.3 mph SE0.5 kmh SE 1.2 mph1.9 kmh 29.57 in1001.4 mb 0.00 in0.0 mm 0.00 in0.0 mm 0.00 in0.0 mm
06:07 AM 46.5°F8.1°C -36.6°F-38.1°C 1% 0.3 mph SE0.5 kmh SE 1.2 mph1.9 kmh 29.57 in1001.4 mb 0.00 in0.0 mm 0.00 in0.0 mm 0.00 in0.0 mm
06:06 AM 46.5°F8.1°C -36.6°F-38.1°C 1% 0.9 mph WNW1.4 kmh WNW 1.2 mph1.9 kmh 29.57 in1001.4 mb 0.00 in0.0 mm 0.00 in0.0 mm 0.00 in0.0 mm
06:05 AM 46.5°F8.1°C -36.6°F-38.1°C 1% 0.8 mph WNW1.3 kmh WNW 1.2 mph1.9 kmh 29.57 in1001.4 mb 0.00 in0.0 mm 0.00 in0.0 mm 0.00 in0.0 mm
06:04 AM 46.5°F8.1°C -36.6°F-38.1°C 1% 0.3 mph SW0.5 kmh SW 0.7 mph1.1 kmh 29.57 in1001.4 mb 0.00 in0.0 mm 0.00 in0.0 mm 0.00 in0.0 mm
06:03 AM 46.7°F8.2°C -36.5°F-38.1°C 1% 0.4 mph WSW0.6 kmh WSW 1.2 mph1.9 kmh 29.57 in1001.4 mb 0.00 in0.0 mm 0.00 in0.0 mm 0.00 in0.0 mm
06:02 AM 46.7°F8.2°C -36.5°F-38.1°C 1% 0.4 mph WSW0.6 kmh WSW 1.2 mph1.9 kmh 29.57 in1001.4 mb 0.00 in0.0 mm 0.00 in0.0 mm 0.00 in0.0 mm
06:01 AM 46.7°F8.2°C -36.5°F-38.1°C 1% 0.4 mph SW0.6 kmh SW 1.2 mph1.9 kmh 29.57 in1001.4 mb 0.00 in0.0 mm 0.00 in0.0 mm 0.00 in0.0 mm
06:00 AM 46.7°F8.2°C -36.5°F-38.1°C 1% 0.3 mph WSW0.5 kmh WSW 1.2 mph1.9 kmh 29.57 in1001.4 mb 0.00 in0.0 mm 0.00 in0.0 mm 0.00 in0.0 mm
05:59 AM 46.8°F8.2°C -36.4°F-38.0°C 1% 0.3 mph W0.5 kmh W 1.2 mph1.9 kmh 29.57 in1001.4 mb 0.00 in0.0 mm 0.00 in0.0 mm 0.00 in0.0 mm
05:58 AM 46.8°F8.2°C -36.4°F-38.0°C 1% 0.3 mph WSW0.5 kmh WSW 1.2 mph1.9 kmh 29.57 in1001.4 mb 0.00 in0.0 mm 0.00 in0.0 mm 0.00 in0.0 mm
05:57 AM 46.8°F8.2°C -36.4°F-38.0°C 1% 0.3 mph SSW0.5 kmh SSW 1.2 mph1.9 kmh 29.57 in1001.4 mb 0.00 in0.0 mm 0.00 in0.0 mm 0.00 in0.0 mm
05:56 AM 46.8°F8.2°C -36.4°F-38.0°C 1% 0.3 mph E0.5 kmh E 1.6 mph2.6 kmh 29.57 in1001.4 mb 0.00 in0.0 mm 0.00 in0.0 mm 0.00 in0.0 mm
05:55 AM 46.9°F8.3°C -36.3°F-37.9°C 1% 0.5 mph SW0.8 kmh SW 1.6 mph2.6 kmh 29.57 in1001.4 mb 0.00 in0.0 mm 0.00 in0.0 mm 0.00 in0.0 mm
05:54 AM 46.9°F8.3°C -36.3°F-37.9°C 1% 0.5 mph SW0.8 kmh SW 1.6 mph2.6 kmh 29.57 in1001.4 mb 0.00 in0.0 mm 0.00 in0.0 mm 0.00 in0.0 mm
05:53 AM 47.1°F8.4°C -36.2°F-37.9°C 1% 0.4 mph SW0.6 kmh SW 1.6 mph2.6 kmh 29.57 in1001.4 mb 0.00 in0.0 mm 0.00 in0.0 mm 0.00 in0.0 mm
05:52 AM 47.1°F8.4°C -36.2°F-37.9°C 1% 0.4 mph SW0.6 kmh SW 1.6 mph2.6 kmh 29.57 in1001.4 mb 0.00 in0.0 mm 0.00 in0.0 mm 0.00 in0.0 mm
05:51 AM 47.1°F8.4°C -36.2°F-37.9°C 1% 0.4 mph SW0.6 kmh SW 2.8 mph4.5 kmh 29.57 in1001.4 mb 0.00 in0.0 mm 0.00 in0.0 mm 0.00 in0.0 mm
05:50 AM 47.1°F8.4°C -36.2°F-37.9°C 1% 0.4 mph WNW0.6 kmh WNW 2.8 mph4.5 kmh 29.57 in1001.4 mb 0.00 in0.0 mm 0.00 in0.0 mm 0.00 in0.0 mm
05:49 AM 47.1°F8.4°C -36.2°F-37.9°C 1% 0.5 mph WSW0.8 kmh WSW 2.8 mph4.5 kmh 29.57 in1001.4 mb 0.00 in0.0 mm 0.00 in0.0 mm 0.00 in0.0 mm
05:48 AM 47.3°F8.5°C -36.0°F-37.8°C 1% 0.7 mph WSW1.1 kmh WSW 2.8 mph4.5 kmh 29.57 in1001.4 mb 0.00 in0.0 mm 0.00 in0.0 mm 0.00 in0.0 mm
05:47 AM 47.3°F8.5°C -36.0°F-37.8°C 1% 1.1 mph W1.8 kmh W 2.8 mph4.5 kmh 29.57 in1001.4 mb 0.00 in0.0 mm 0.00 in0.0 mm 0.00 in0.0 mm
05:46 AM 47.5°F8.6°C -35.9°F-37.7°C 1% 0.3 mph WSW0.5 kmh WSW 2.8 mph4.5 kmh 29.56 in1001.0 mb 0.00 in0.0 mm 0.00 in0.0 mm 0.00 in0.0 mm
05:45 AM 47.5°F8.6°C -35.9°F-37.7°C 1% 0.4 mph W0.6 kmh W 2.8 mph4.5 kmh 29.57 in1001.4 mb 0.00 in0.0 mm 0.00 in0.0 mm 0.00 in0.0 mm
05:44 AM 47.5°F8.6°C -35.9°F-37.7°C 1% 0.6 mph WSW1.0 kmh WSW 2.8 mph4.5 kmh 29.56 in1001.0 mb 0.00 in0.0 mm 0.00 in0.0 mm 0.00 in0.0 mm
05:43 AM 47.5°F8.6°C -35.9°F-37.7°C 1% 1.0 mph SW1.6 kmh SW 2.8 mph4.5 kmh 29.57 in1001.4 mb 0.00 in0.0 mm 0.00 in0.0 mm 0.00 in0.0 mm
05:42 AM 47.6°F8.7°C -35.8°F-37.7°C 1% 1.0 mph WSW1.6 kmh WSW 2.8 mph4.5 kmh 29.56 in1001.0 mb 0.00 in0.0 mm 0.00 in0.0 mm 0.00 in0.0 mm
05:41 AM 47.6°F8.7°C -35.8°F-37.7°C 1% 0.5 mph WNW0.8 kmh WNW 1.9 mph3.1 kmh 29.56 in1001.0 mb 0.00 in0.0 mm 0.00 in0.0 mm 0.00 in0.0 mm
05:40 AM 47.6°F8.7°C -35.8°F-37.7°C 1% 0.4 mph W0.6 kmh W 1.9 mph3.1 kmh 29.57 in1001.4 mb 0.00 in0.0 mm 0.00 in0.0 mm 0.00 in0.0 mm
05:39 AM 47.8°F8.8°C -35.7°F-37.6°C 1% 0.4 mph WSW0.6 kmh WSW 1.9 mph3.1 kmh 29.56 in1001.0 mb 0.00 in0.0 mm 0.00 in0.0 mm 0.00 in0.0 mm
05:38 AM 47.8°F8.8°C -35.7°F-37.6°C 1% 0.6 mph SW1.0 kmh SW 1.9 mph3.1 kmh 29.56 in1001.0 mb 0.00 in0.0 mm 0.00 in0.0 mm 0.00 in0.0 mm
05:37 AM 47.8°F8.8°C -35.7°F-37.6°C 1% 0.7 mph SSW1.1 kmh SSW 1.9 mph3.1 kmh 29.57 in1001.4 mb 0.00 in0.0 mm 0.00 in0.0 mm 0.00 in0.0 mm
05:36 AM 47.8°F8.8°C -35.7°F-37.6°C 1% 0.8 mph SW1.3 kmh SW 1.9 mph3.1 kmh 29.56 in1001.0 mb 0.00 in0.0 mm 0.00 in0.0 mm 0.00 in0.0 mm
05:35 AM 47.8°F8.8°C -35.7°F-37.6°C 1% 0.6 mph SW1.0 kmh SW 1.9 mph3.1 kmh 29.56 in1001.0 mb 0.00 in0.0 mm 0.00 in0.0 mm 0.00 in0.0 mm
05:34 AM 48.0°F8.9°C -35.6°F-37.6°C 1% 0.5 mph SW0.8 kmh SW 1.9 mph3.1 kmh 29.56 in1001.0 mb 0.00 in0.0 mm 0.00 in0.0 mm 0.00 in0.0 mm
05:33 AM 48.0°F8.9°C -35.6°F-37.6°C 1% 0.9 mph SW1.4 kmh SW 1.9 mph3.1 kmh 29.56 in1001.0 mb 0.00 in0.0 mm 0.00 in0.0 mm 0.00 in0.0 mm
05:32 AM 48.0°F8.9°C -35.6°F-37.6°C 1% 0.7 mph SW1.1 kmh SW 1.9 mph3.1 kmh 29.56 in1001.0 mb 0.00 in0.0 mm 0.00 in0.0 mm 0.00 in0.0 mm
05:31 AM 48.2°F9.0°C -35.5°F-37.5°C 1% 0.5 mph WSW0.8 kmh WSW 1.9 mph3.1 kmh 29.56 in1001.0 mb 0.00 in0.0 mm 0.00 in0.0 mm 0.00 in0.0 mm
05:30 AM 48.2°F9.0°C -35.5°F-37.5°C 1% 0.4 mph WSW0.6 kmh WSW 1.9 mph3.1 kmh 29.56 in1001.0 mb 0.00 in0.0 mm 0.00 in0.0 mm 0.00 in0.0 mm
05:29 AM 48.2°F9.0°C -35.5°F-37.5°C 1% 0.4 mph WNW0.6 kmh WNW 1.9 mph3.1 kmh 29.57 in1001.4 mb 0.00 in0.0 mm 0.00 in0.0 mm 0.00 in0.0 mm
05:28 AM 48.4°F9.1°C -35.3°F-37.4°C 1% 0.7 mph WSW1.1 kmh WSW 1.9 mph3.1 kmh 29.56 in1001.0 mb 0.00 in0.0 mm 0.00 in0.0 mm 0.00 in0.0 mm
05:27 AM 48.4°F9.1°C -35.3°F-37.4°C 1% 0.8 mph SW1.3 kmh SW 1.9 mph3.1 kmh 29.57 in1001.4 mb 0.00 in0.0 mm 0.00 in0.0 mm 0.00 in0.0 mm
05:26 AM 48.4°F9.1°C -35.3°F-37.4°C 1% 0.8 mph WSW1.3 kmh WSW 1.9 mph3.1 kmh 29.57 in1001.4 mb 0.00 in0.0 mm 0.00 in0.0 mm 0.00 in0.0 mm
05:25 AM 48.5°F9.2°C -35.3°F-37.4°C 1% 0.6 mph WSW1.0 kmh WSW 1.9 mph3.1 kmh 29.57 in1001.4 mb 0.00 in0.0 mm 0.00 in0.0 mm 0.00 in0.0 mm
05:24 AM 48.5°F9.2°C -35.3°F-37.4°C 1% 0.7 mph W1.1 kmh W 1.9 mph3.1 kmh 29.57 in1001.4 mb 0.00 in0.0 mm 0.00 in0.0 mm 0.00 in0.0 mm
05:23 AM 48.5°F9.2°C -35.3°F-37.4°C 1% 0.8 mph WSW1.3 kmh WSW 3.1 mph5.0 kmh 29.57 in1001.4 mb 0.00 in0.0 mm 0.00 in0.0 mm 0.00 in0.0 mm
05:22 AM 48.5°F9.2°C -35.3°F-37.4°C 1% 0.6 mph WSW1.0 kmh WSW 3.1 mph5.0 kmh 29.57 in1001.4 mb 0.00 in0.0 mm 0.00 in0.0 mm 0.00 in0.0 mm
05:21 AM 48.7°F9.3°C -35.1°F-37.3°C 1% 0.9 mph WNW1.4 kmh WNW 3.1 mph5.0 kmh 29.57 in1001.4 mb 0.00 in0.0 mm 0.00 in0.0 mm 0.00 in0.0 mm
05:20 AM 48.7°F9.3°C -35.1°F-37.3°C 1% 0.5 mph W0.8 kmh W 4.4 mph7.1 kmh 29.56 in1001.0 mb 0.00 in0.0 mm 0.00 in0.0 mm 0.00 in0.0 mm
05:19 AM 48.7°F9.3°C -35.1°F-37.3°C 1% 0.6 mph WNW1.0 kmh WNW 4.4 mph7.1 kmh 29.56 in1001.0 mb 0.00 in0.0 mm 0.00 in0.0 mm 0.00 in0.0 mm
05:18 AM 48.9°F9.4°C -35.0°F-37.2°C 1% 1.0 mph WNW1.6 kmh WNW 4.4 mph7.1 kmh 29.56 in1001.0 mb 0.00 in0.0 mm 0.00 in0.0 mm 0.00 in0.0 mm
05:17 AM 48.9°F9.4°C -35.0°F-37.2°C 1% 0.7 mph W1.1 kmh W 4.4 mph7.1 kmh 29.56 in1001.0 mb 0.00 in0.0 mm 0.00 in0.0 mm 0.00 in0.0 mm
05:16 AM 48.9°F9.4°C -35.0°F-37.2°C 1% 0.5 mph WSW0.8 kmh WSW 4.4 mph7.1 kmh 29.56 in1001.0 mb 0.00 in0.0 mm 0.00 in0.0 mm 0.00 in0.0 mm
05:15 AM 48.9°F9.4°C -35.0°F-37.2°C 1% 1.2 mph SW1.9 kmh SW 4.4 mph7.1 kmh 29.56 in1001.0 mb 0.00 in0.0 mm 0.00 in0.0 mm 0.00 in0.0 mm
05:14 AM 49.1°F9.5°C -34.9°F-37.2°C 1% 1.1 mph SW1.8 kmh SW 4.4 mph7.1 kmh 29.56 in1001.0 mb 0.00 in0.0 mm 0.00 in0.0 mm 0.00 in0.0 mm
05:13 AM 49.1°F9.5°C -34.9°F-37.2°C 1% 0.6 mph WSW1.0 kmh WSW 4.4 mph7.1 kmh 29.56 in1001.0 mb 0.00 in0.0 mm 0.00 in0.0 mm 0.00 in0.0 mm
05:12 AM 49.3°F9.6°C -34.8°F-37.1°C 1% 1.0 mph WSW1.6 kmh WSW 4.4 mph7.1 kmh 29.56 in1001.0 mb 0.00 in0.0 mm 0.00 in0.0 mm 0.00 in0.0 mm
05:11 AM 49.3°F9.6°C -34.8°F-37.1°C 1% 1.0 mph SW1.6 kmh SW 4.4 mph7.1 kmh 29.56 in1001.0 mb 0.00 in0.0 mm 0.00 in0.0 mm 0.00 in0.0 mm
05:10 AM 49.3°F9.6°C -34.8°F-37.1°C 1% 0.3 mph S0.5 kmh S 1.9 mph3.1 kmh 29.56 in1001.0 mb 0.00 in0.0 mm 0.00 in0.0 mm 0.00 in0.0 mm
05:09 AM 49.3°F9.6°C -34.8°F-37.1°C 1% 0.3 mph SW0.5 kmh SW 1.9 mph3.1 kmh 29.56 in1001.0 mb 0.00 in0.0 mm 0.00 in0.0 mm 0.00 in0.0 mm
05:08 AM 49.3°F9.6°C -34.8°F-37.1°C 1% 0.4 mph WSW0.6 kmh WSW 1.9 mph3.1 kmh 29.56 in1001.0 mb 0.00 in0.0 mm 0.00 in0.0 mm 0.00 in0.0 mm
05:07 AM 49.3°F9.6°C -34.8°F-37.1°C 1% 0.5 mph WSW0.8 kmh WSW 2.8 mph4.5 kmh 29.56 in1001.0 mb 0.00 in0.0 mm 0.00 in0.0 mm 0.00 in0.0 mm
05:06 AM 49.3°F9.6°C -34.8°F-37.1°C 1% 0.8 mph WSW1.3 kmh WSW 2.8 mph4.5 kmh 29.56 in1001.0 mb 0.00 in0.0 mm 0.00 in0.0 mm 0.00 in0.0 mm
05:05 AM 49.3°F9.6°C -34.8°F-37.1°C 1% 1.0 mph WSW1.6 kmh WSW 2.8 mph4.5 kmh 29.56 in1001.0 mb 0.00 in0.0 mm 0.00 in0.0 mm 0.00 in0.0 mm
05:04 AM 49.3°F9.6°C -34.8°F-37.1°C 1% 1.3 mph WSW2.1 kmh WSW 2.8 mph4.5 kmh 29.56 in1001.0 mb 0.00 in0.0 mm 0.00 in0.0 mm 0.00 in0.0 mm
05:03 AM 49.4°F9.7°C -34.7°F-37.1°C 1% 1.3 mph WSW2.1 kmh WSW 2.8 mph4.5 kmh 29.56 in1001.0 mb 0.00 in0.0 mm 0.00 in0.0 mm 0.00 in0.0 mm
05:02 AM 49.4°F9.7°C -34.7°F-37.1°C 1% 0.9 mph WSW1.4 kmh WSW 2.8 mph4.5 kmh 29.56 in1001.0 mb 0.00 in0.0 mm 0.00 in0.0 mm 0.00 in0.0 mm
05:01 AM 49.6°F9.8°C -34.6°F-37.0°C 1% 0.5 mph WSW0.8 kmh WSW 2.8 mph4.5 kmh 29.56 in1001.0 mb 0.00 in0.0 mm 0.00 in0.0 mm 0.00 in0.0 mm
05:00 AM 49.6°F9.8°C -34.6°F-37.0°C 1% 0.3 mph WSW0.5 kmh WSW 2.8 mph4.5 kmh 29.56 in1001.0 mb 0.00 in0.0 mm 0.00 in0.0 mm 0.00 in0.0 mm
04:59 AM 49.6°F9.8°C -34.6°F-37.0°C 1% 0.7 mph WSW1.1 kmh WSW 2.8 mph4.5 kmh 29.56 in1001.0 mb 0.00 in0.0 mm 0.00 in0.0 mm 0.00 in0.0 mm
04:58 AM 49.6°F9.8°C -34.6°F-37.0°C 1% 1.1 mph W1.8 kmh W 2.8 mph4.5 kmh 29.56 in1001.0 mb 0.00 in0.0 mm 0.00 in0.0 mm 0.00 in0.0 mm
04:57 AM 49.6°F9.8°C -34.6°F-37.0°C 1% 0.7 mph WSW1.1 kmh WSW 2.8 mph4.5 kmh 29.57 in1001.4 mb 0.00 in0.0 mm 0.00 in0.0 mm 0.00 in0.0 mm
04:56 AM 49.8°F9.9°C -34.5°F-36.9°C 1% 0.5 mph WSW0.8 kmh WSW 2.3 mph3.7 kmh 29.57 in1001.4 mb 0.00 in0.0 mm 0.00 in0.0 mm 0.00 in0.0 mm
04:55 AM 49.8°F9.9°C -34.5°F-36.9°C 1% 0.5 mph WSW0.8 kmh WSW 2.3 mph3.7 kmh 29.56 in1001.0 mb 0.00 in0.0 mm 0.00 in0.0 mm 0.00 in0.0 mm
04:54 AM 49.8°F9.9°C -34.5°F-36.9°C 1% 0.9 mph WSW1.4 kmh WSW 2.3 mph3.7 kmh 29.56 in1001.0 mb 0.00 in0.0 mm 0.00 in0.0 mm 0.00 in0.0 mm
04:53 AM 49.8°F9.9°C -34.5°F-36.9°C 1% 1.0 mph WSW1.6 kmh WSW 2.3 mph3.7 kmh 29.57 in1001.4 mb 0.00 in0.0 mm 0.00 in0.0 mm 0.00 in0.0 mm
04:52 AM 50.0°F10.0°C -34.3°F-36.8°C 1% 0.7 mph W1.1 kmh W 2.3 mph3.7 kmh 29.56 in1001.0 mb 0.00 in0.0 mm 0.00 in0.0 mm 0.00 in0.0 mm
04:51 AM 50.0°F10.0°C -34.3°F-36.8°C 1% 0.7 mph W1.1 kmh W 2.3 mph3.7 kmh 29.57 in1001.4 mb 0.00 in0.0 mm 0.00 in0.0 mm 0.00 in0.0 mm
04:50 AM 50.0°F10.0°C -34.3°F-36.8°C 1% 0.7 mph WSW1.1 kmh WSW 2.3 mph3.7 kmh 29.57 in1001.4 mb 0.00 in0.0 mm 0.00 in0.0 mm 0.00 in0.0 mm
04:49 AM 50.1°F10.1°C -34.2°F-36.8°C 1% 0.5 mph NW0.8 kmh NW 2.3 mph3.7 kmh 29.56 in1001.0 mb 0.00 in0.0 mm 0.00 in0.0 mm 0.00 in0.0 mm
04:48 AM 50.1°F10.1°C -34.2°F-36.8°C 1% 0.5 mph NW0.8 kmh NW 2.3 mph3.7 kmh 29.57 in1001.4 mb 0.00 in0.0 mm 0.00 in0.0 mm 0.00 in0.0 mm
04:47 AM 50.1°F10.1°C -34.2°F-36.8°C 1% 0.4 mph WSW0.6 kmh WSW 2.3 mph3.7 kmh 29.57 in1001.4 mb 0.00 in0.0 mm 0.00 in0.0 mm 0.00 in0.0 mm
04:46 AM 50.1°F10.1°C -34.2°F-36.8°C 1% 0.6 mph WSW1.0 kmh WSW 2.3 mph3.7 kmh 29.56 in1001.0 mb 0.00 in0.0 mm 0.00 in0.0 mm 0.00 in0.0 mm
04:45 AM 50.1°F10.1°C -34.2°F-36.8°C 1% 0.6 mph W1.0 kmh W 2.3 mph3.7 kmh 29.56 in1001.0 mb 0.00 in0.0 mm 0.00 in0.0 mm 0.00 in0.0 mm
04:44 AM 50.2°F10.1°C -34.1°F-36.7°C 1% 0.4 mph NW0.6 kmh NW 2.3 mph3.7 kmh 29.57 in1001.4 mb 0.00 in0.0 mm 0.00 in0.0 mm 0.00 in0.0 mm
04:43 AM 50.2°F10.1°C -34.1°F-36.7°C 1% 0.6 mph SE1.0 kmh SE 2.3 mph3.7 kmh 29.56 in1001.0 mb 0.00 in0.0 mm 0.00 in0.0 mm 0.00 in0.0 mm
04:42 AM 50.2°F10.1°C -34.1°F-36.7°C 1% 0.7 mph S1.1 kmh S 2.3 mph3.7 kmh 29.57 in1001.4 mb 0.00 in0.0 mm 0.00 in0.0 mm 0.00 in0.0 mm
04:41 AM 50.2°F10.1°C -34.1°F-36.7°C 1% 1.0 mph SW1.6 kmh SW 2.3 mph3.7 kmh 29.56 in1001.0 mb 0.00 in0.0 mm 0.00 in0.0 mm 0.00 in0.0 mm
04:40 AM 50.2°F10.1°C -34.1°F-36.7°C 1% 1.0 mph SW1.6 kmh SW 2.3 mph3.7 kmh 29.56 in1001.0 mb 0.00 in0.0 mm 0.00 in0.0 mm 0.00 in0.0 mm
04:39 AM 50.2°F10.1°C -34.1°F-36.7°C 1% 0.7 mph SE1.1 kmh SE 1.9 mph3.1 kmh 29.56 in1001.0 mb 0.00 in0.0 mm 0.00 in0.0 mm 0.00 in0.0 mm
04:38 AM 50.4°F10.2°C -34.0°F-36.7°C 1% 0.7 mph S1.1 kmh S 1.9 mph3.1 kmh 29.56 in1001.0 mb 0.00 in0.0 mm 0.00 in0.0 mm 0.00 in0.0 mm
04:37 AM 50.4°F10.2°C -34.0°F-36.7°C 1% 0.7 mph SW1.1 kmh SW 1.9 mph3.1 kmh 29.56 in1001.0 mb 0.00 in0.0 mm 0.00 in0.0 mm 0.00 in0.0 mm
04:36 AM 50.4°F10.2°C -34.0°F-36.7°C 1% 0.8 mph SW1.3 kmh SW 1.9 mph3.1 kmh 29.56 in1001.0 mb 0.00 in0.0 mm 0.00 in0.0 mm 0.00 in0.0 mm
04:35 AM 50.4°F10.2°C -34.0°F-36.7°C 1% 0.4 mph W0.6 kmh W 1.2 mph1.9 kmh 29.56 in1001.0 mb 0.00 in0.0 mm 0.00 in0.0 mm 0.00 in0.0 mm
04:34 AM 50.4°F10.2°C -34.0°F-36.7°C 1% 0.4 mph SW0.6 kmh SW 1.2 mph1.9 kmh 29.56 in1001.0 mb 0.00 in0.0 mm 0.00 in0.0 mm 0.00 in0.0 mm
04:33 AM 50.4°F10.2°C -34.0°F-36.7°C 1% 0.5 mph NW0.8 kmh NW 1.2 mph1.9 kmh 29.56 in1001.0 mb 0.00 in0.0 mm 0.00 in0.0 mm 0.00 in0.0 mm
04:32 AM 50.6°F10.3°C -33.9°F-36.6°C 1% 0.5 mph WNW0.8 kmh WNW 1.2 mph1.9 kmh 29.56 in1001.0 mb 0.00 in0.0 mm 0.00 in0.0 mm 0.00 in0.0 mm
04:31 AM 50.6°F10.3°C -33.9°F-36.6°C 1% 0.6 mph WSW1.0 kmh WSW 1.2 mph1.9 kmh 29.56 in1001.0 mb 0.00 in0.0 mm 0.00 in0.0 mm 0.00 in0.0 mm
04:30 AM 50.6°F10.3°C -33.9°F-36.6°C 1% 0.6 mph WSW1.0 kmh WSW 1.6 mph2.6 kmh 29.56 in1001.0 mb 0.00 in0.0 mm 0.00 in0.0 mm 0.00 in0.0 mm
04:29 AM 50.6°F10.3°C -33.9°F-36.6°C 1% 0.6 mph WSW1.0 kmh WSW 1.6 mph2.6 kmh 29.56 in1001.0 mb 0.00 in0.0 mm 0.00 in0.0 mm 0.00 in0.0 mm
04:28 AM 50.6°F10.3°C -33.9°F-36.6°C 1% 0.5 mph WSW0.8 kmh WSW 1.6 mph2.6 kmh 29.56 in1001.0 mb 0.00 in0.0 mm 0.00 in0.0 mm 0.00 in0.0 mm
04:27 AM 50.6°F10.3°C -33.9°F-36.6°C 1% 0.5 mph WSW0.8 kmh WSW 1.6 mph2.6 kmh 29.56 in1001.0 mb 0.00 in0.0 mm 0.00 in0.0 mm 0.00 in0.0 mm
04:26 AM 50.6°F10.3°C -33.9°F-36.6°C 1% 0.5 mph SW0.8 kmh SW 2.3 mph3.7 kmh 29.56 in1001.0 mb 0.00 in0.0 mm 0.00 in0.0 mm 0.00 in0.0 mm
04:25 AM 50.8°F10.4°C -33.8°F-36.6°C 1% 0.4 mph SW0.6 kmh SW 2.3 mph3.7 kmh 29.56 in1001.0 mb 0.00 in0.0 mm 0.00 in0.0 mm 0.00 in0.0 mm
04:24 AM 50.8°F10.4°C -33.8°F-36.6°C 1% 0.3 mph NW0.5 kmh NW 2.3 mph3.7 kmh 29.56 in1001.0 mb 0.00 in0.0 mm 0.00 in0.0 mm 0.00 in0.0 mm
04:23 AM 50.8°F10.4°C -33.8°F-36.6°C 1% 0.3 mph WNW0.5 kmh WNW 2.3 mph3.7 kmh 29.56 in1001.0 mb 0.00 in0.0 mm 0.00 in0.0 mm 0.00 in0.0 mm
04:22 AM 50.8°F10.4°C -33.8°F-36.6°C 1% 0.7 mph NW1.1 kmh NW 2.3 mph3.7 kmh 29.56 in1001.0 mb 0.00 in0.0 mm 0.00 in0.0 mm 0.00 in0.0 mm
04:21 AM 50.8°F10.4°C -33.8°F-36.6°C 1% 0.8 mph NW1.3 kmh NW 2.3 mph3.7 kmh 29.56 in1001.0 mb 0.00 in0.0 mm 0.00 in0.0 mm 0.00 in0.0 mm
04:20 AM 51.0°F10.6°C -33.6°F-36.4°C 1% 0.5 mph NW0.8 kmh NW 2.3 mph3.7 kmh 29.56 in1001.0 mb 0.00 in0.0 mm 0.00 in0.0 mm 0.00 in0.0 mm
04:19 AM 50.8°F10.4°C -33.8°F-36.6°C 1% 0.3 mph W0.5 kmh W 3.1 mph5.0 kmh 29.56 in1001.0 mb 0.00 in0.0 mm 0.00 in0.0 mm 0.00 in0.0 mm
04:18 AM 51.0°F10.6°C -33.6°F-36.4°C 1% 0.6 mph WSW1.0 kmh WSW 3.1 mph5.0 kmh 29.56 in1001.0 mb 0.00 in0.0 mm 0.00 in0.0 mm 0.00 in0.0 mm
04:17 AM 51.0°F10.6°C -33.6°F-36.4°C 1% 0.8 mph WSW1.3 kmh WSW 3.1 mph5.0 kmh 29.56 in1001.0 mb 0.00 in0.0 mm 0.00 in0.0 mm 0.00 in0.0 mm
04:16 AM 51.0°F10.6°C -33.6°F-36.4°C 1% 0.6 mph WSW1.0 kmh WSW 3.1 mph5.0 kmh 29.56 in1001.0 mb 0.00 in0.0 mm 0.00 in0.0 mm 0.00 in0.0 mm
04:15 AM 51.0°F10.6°C -33.6°F-36.4°C 1% 0.6 mph WSW1.0 kmh WSW 3.1 mph5.0 kmh 29.56 in1001.0 mb 0.00 in0.0 mm 0.00 in0.0 mm 0.00 in0.0 mm
04:14 AM 51.0°F10.6°C -33.6°F-36.4°C 1% 0.5 mph WSW0.8 kmh WSW 3.1 mph5.0 kmh 29.56 in1001.0 mb 0.00 in0.0 mm 0.00 in0.0 mm 0.00 in0.0 mm
04:13 AM 51.1°F10.6°C -33.6°F-36.4°C 1% 0.7 mph WSW1.1 kmh WSW 3.1 mph5.0 kmh 29.56 in1001.0 mb 0.00 in0.0 mm 0.00 in0.0 mm 0.00 in0.0 mm
04:12 AM 51.1°F10.6°C -33.6°F-36.4°C 1% 0.8 mph WSW1.3 kmh WSW 3.1 mph5.0 kmh 29.56 in1001.0 mb 0.00 in0.0 mm 0.00 in0.0 mm 0.00 in0.0 mm
04:11 AM 51.1°F10.6°C -33.6°F-36.4°C 1% 1.1 mph WSW1.8 kmh WSW 3.1 mph5.0 kmh 29.56 in1001.0 mb 0.00 in0.0 mm 0.00 in0.0 mm 0.00 in0.0 mm
04:10 AM 51.3°F10.7°C -33.4°F-36.3°C 1% 0.9 mph WSW1.4 kmh WSW 3.1 mph5.0 kmh 29.56 in1001.0 mb 0.00 in0.0 mm 0.00 in0.0 mm 0.00 in0.0 mm
04:09 AM 51.3°F10.7°C -33.4°F-36.3°C 1% 0.3 mph WSW0.5 kmh WSW 1.9 mph3.1 kmh 29.56 in1001.0 mb 0.00 in0.0 mm 0.00 in0.0 mm 0.00 in0.0 mm
04:08 AM 51.3°F10.7°C -33.4°F-36.3°C 1% 0.3 mph WSW0.5 kmh WSW 1.9 mph3.1 kmh 29.56 in1001.0 mb 0.00 in0.0 mm 0.00 in0.0 mm 0.00 in0.0 mm
04:07 AM 51.3°F10.7°C -33.4°F-36.3°C 1% 0.3 mph NW0.5 kmh NW 1.9 mph3.1 kmh 29.56 in1001.0 mb 0.00 in0.0 mm 0.00 in0.0 mm 0.00 in0.0 mm
04:06 AM 51.5°F10.8°C -33.3°F-36.3°C 1% 1.0 mph WSW1.6 kmh WSW 1.9 mph3.1 kmh 29.56 in1001.0 mb 0.00 in0.0 mm 0.00 in0.0 mm 0.00 in0.0 mm
04:05 AM 51.5°F10.8°C -33.3°F-36.3°C 1% 1.0 mph WSW1.6 kmh WSW 1.9 mph3.1 kmh 29.56 in1001.0 mb 0.00 in0.0 mm 0.00 in0.0 mm 0.00 in0.0 mm
04:04 AM 51.5°F10.8°C -33.3°F-36.3°C 1% 0.3 mph WNW0.5 kmh WNW 1.9 mph3.1 kmh 29.56 in1001.0 mb 0.00 in0.0 mm 0.00 in0.0 mm 0.00 in0.0 mm
04:03 AM 51.5°F10.8°C -33.3°F-36.3°C 1% 0.8 mph W1.3 kmh W 1.9 mph3.1 kmh 29.56 in1001.0 mb 0.00 in0.0 mm 0.00 in0.0 mm 0.00 in0.0 mm
04:02 AM 51.5°F10.8°C -33.3°F-36.3°C 1% 0.7 mph WSW1.1 kmh WSW 1.9 mph3.1 kmh 29.57 in1001.4 mb 0.00 in0.0 mm 0.00 in0.0 mm 0.00 in0.0 mm
04:01 AM 51.5°F10.8°C -33.3°F-36.3°C 1% 0.4 mph WSW0.6 kmh WSW 1.2 mph1.9 kmh 29.56 in1001.0 mb 0.00 in0.0 mm 0.00 in0.0 mm 0.00 in0.0 mm
04:00 AM 51.7°F10.9°C -33.2°F-36.2°C 1% 0.4 mph SW0.6 kmh SW 1.2 mph1.9 kmh 29.56 in1001.0 mb 0.00 in0.0 mm 0.00 in0.0 mm 0.00 in0.0 mm
03:59 AM 51.9°F11.1°C -33.1°F-36.2°C 1% 0.4 mph SW0.6 kmh SW 1.2 mph1.9 kmh 29.56 in1001.0 mb 0.00 in0.0 mm 0.00 in0.0 mm 0.00 in0.0 mm
03:58 AM 51.9°F11.1°C -33.1°F-36.2°C 1% 0.4 mph SW0.6 kmh SW 1.2 mph1.9 kmh 29.57 in1001.4 mb 0.00 in0.0 mm 0.00 in0.0 mm 0.00 in0.0 mm
03:57 AM 51.9°F11.1°C -33.1°F-36.2°C 1% 0.8 mph SSW1.3 kmh SSW 1.2 mph1.9 kmh 29.56 in1001.0 mb 0.00 in0.0 mm 0.00 in0.0 mm 0.00 in0.0 mm
03:56 AM 51.9°F11.1°C -33.1°F-36.2°C 1% 0.5 mph SW0.8 kmh SW 1.2 mph1.9 kmh 29.56 in1001.0 mb 0.00 in0.0 mm 0.00 in0.0 mm 0.00 in0.0 mm
03:55 AM 52.0°F11.1°C -33.0°F-36.1°C 1% 0.4 mph WSW0.6 kmh WSW 1.2 mph1.9 kmh 29.56 in1001.0 mb 0.00 in0.0 mm 0.00 in0.0 mm 0.00 in0.0 mm
03:54 AM 52.0°F11.1°C -33.0°F-36.1°C 1% 0.4 mph WSW0.6 kmh WSW 1.6 mph2.6 kmh 29.56 in1001.0 mb 0.00 in0.0 mm 0.00 in0.0 mm 0.00 in0.0 mm
03:53 AM 52.0°F11.1°C -33.0°F-36.1°C 1% 0.4 mph WSW0.6 kmh WSW 1.9 mph3.1 kmh 29.56 in1001.0 mb 0.00 in0.0 mm 0.00 in0.0 mm 0.00 in0.0 mm
03:52 AM 52.0°F11.1°C -33.0°F-36.1°C 1% 0.3 mph W0.5 kmh W 2.8 mph4.5 kmh 29.56 in1001.0 mb 0.00 in0.0 mm 0.00 in0.0 mm 0.00 in0.0 mm
03:51 AM 52.0°F11.1°C -33.0°F-36.1°C 1% 0.6 mph WNW1.0 kmh WNW 2.8 mph4.5 kmh 29.56 in1001.0 mb 0.00 in0.0 mm 0.00 in0.0 mm 0.00 in0.0 mm
03:50 AM 52.0°F11.1°C -33.0°F-36.1°C 1% 0.8 mph W1.3 kmh W 2.8 mph4.5 kmh 29.56 in1001.0 mb 0.00 in0.0 mm 0.00 in0.0 mm 0.00 in0.0 mm
03:49 AM 52.2°F11.2°C -32.9°F-36.1°C 1% 0.4 mph SW0.6 kmh SW 2.8 mph4.5 kmh 29.56 in1001.0 mb 0.00 in0.0 mm 0.00 in0.0 mm 0.00 in0.0 mm
03:48 AM 52.2°F11.2°C -32.9°F-36.1°C 1% 0.3 mph SW0.5 kmh SW 2.8 mph4.5 kmh 29.56 in1001.0 mb 0.00 in0.0 mm 0.00 in0.0 mm 0.00 in0.0 mm
03:47 AM 52.2°F11.2°C -32.9°F-36.1°C 1% 0.5 mph SW0.8 kmh SW 2.8 mph4.5 kmh 29.56 in1001.0 mb 0.00 in0.0 mm 0.00 in0.0 mm 0.00 in0.0 mm
03:46 AM 52.4°F11.3°C -32.8°F-36.0°C 1% 0.7 mph SW1.1 kmh SW 4.4 mph7.1 kmh 29.56 in1001.0 mb 0.00 in0.0 mm 0.00 in0.0 mm 0.00 in0.0 mm
03:45 AM 52.4°F11.3°C -32.8°F-36.0°C 1% 0.8 mph SW1.3 kmh SW 4.4 mph7.1 kmh 29.56 in1001.0 mb 0.00 in0.0 mm 0.00 in0.0 mm 0.00 in0.0 mm
03:44 AM 52.4°F11.3°C -32.8°F-36.0°C 1% 0.9 mph SW1.4 kmh SW 4.4 mph7.1 kmh 29.56 in1001.0 mb 0.00 in0.0 mm 0.00 in0.0 mm 0.00 in0.0 mm
03:43 AM 52.4°F11.3°C -32.8°F-36.0°C 1% 0.8 mph SW1.3 kmh SW 4.4 mph7.1 kmh 29.56 in1001.0 mb 0.00 in0.0 mm 0.00 in0.0 mm 0.00 in0.0 mm
03:42 AM 52.4°F11.3°C -32.8°F-36.0°C 1% 0.6 mph WSW1.0 kmh WSW 4.7 mph7.6 kmh 29.56 in1001.0 mb 0.00 in0.0 mm 0.00 in0.0 mm 0.00 in0.0 mm
03:41 AM 52.6°F11.4°C -32.6°F-35.9°C 1% 0.5 mph WSW0.8 kmh WSW 4.7 mph7.6 kmh 29.56 in1001.0 mb 0.00 in0.0 mm 0.00 in0.0 mm 0.00 in0.0 mm
03:40 AM 52.6°F11.4°C -32.6°F-35.9°C 1% 0.4 mph WSW0.6 kmh WSW 4.7 mph7.6 kmh 29.56 in1001.0 mb 0.00 in0.0 mm 0.00 in0.0 mm 0.00 in0.0 mm
03:39 AM 52.6°F11.4°C -32.6°F-35.9°C 1% 0.4 mph WSW0.6 kmh WSW 4.7 mph7.6 kmh 29.56 in1001.0 mb 0.00 in0.0 mm 0.00 in0.0 mm 0.00 in0.0 mm
03:38 AM 52.6°F11.4°C -32.6°F-35.9°C 1% 1.1 mph WSW1.8 kmh WSW 6.0 mph9.7 kmh 29.56 in1001.0 mb 0.00 in0.0 mm 0.00 in0.0 mm 0.00 in0.0 mm
03:37 AM 52.6°F11.4°C -32.6°F-35.9°C 1% 1.4 mph WSW2.3 kmh WSW 6.0 mph9.7 kmh 29.56 in1001.0 mb 0.00 in0.0 mm 0.00 in0.0 mm 0.00 in0.0 mm
03:36 AM 52.8°F11.6°C -32.5°F-35.8°C 1% 1.3 mph WSW2.1 kmh WSW 6.0 mph9.7 kmh 29.56 in1001.0 mb 0.00 in0.0 mm 0.00 in0.0 mm 0.00 in0.0 mm
03:35 AM 52.8°F11.6°C -32.5°F-35.8°C 1% 1.0 mph WSW1.6 kmh WSW 6.0 mph9.7 kmh 29.56 in1001.0 mb 0.00 in0.0 mm 0.00 in0.0 mm 0.00 in0.0 mm
03:34 AM 52.8°F11.6°C -32.5°F-35.8°C 1% 1.1 mph WSW1.8 kmh WSW 6.0 mph9.7 kmh 29.56 in1001.0 mb 0.00 in0.0 mm 0.00 in0.0 mm 0.00 in0.0 mm
03:33 AM 52.8°F11.6°C -32.5°F-35.8°C 1% 1.4 mph WSW2.3 kmh WSW 6.0 mph9.7 kmh 29.56 in1001.0 mb 0.00 in0.0 mm 0.00 in0.0 mm 0.00 in0.0 mm
03:32 AM 52.8°F11.6°C -32.5°F-35.8°C 1% 0.5 mph WSW0.8 kmh WSW 6.0 mph9.7 kmh 29.57 in1001.4 mb 0.00 in0.0 mm 0.00 in0.0 mm 0.00 in0.0 mm
03:31 AM 52.8°F11.6°C -32.5°F-35.8°C 1% 0.5 mph W0.8 kmh W 6.0 mph9.7 kmh 29.57 in1001.4 mb 0.00 in0.0 mm 0.00 in0.0 mm 0.00 in0.0 mm
03:30 AM 52.8°F11.6°C -32.5°F-35.8°C 1% 1.8 mph WSW2.9 kmh WSW 6.0 mph9.7 kmh 29.57 in1001.4 mb 0.00 in0.0 mm 0.00 in0.0 mm 0.00 in0.0 mm
03:29 AM 52.8°F11.6°C -32.5°F-35.8°C 1% 1.7 mph WSW2.7 kmh WSW 6.0 mph9.7 kmh 29.57 in1001.4 mb 0.00 in0.0 mm 0.00 in0.0 mm 0.00 in0.0 mm
03:28 AM 52.8°F11.6°C -32.5°F-35.8°C 1% 0.8 mph WNW1.3 kmh WNW 4.4 mph7.1 kmh 29.57 in1001.4 mb 0.00 in0.0 mm 0.00 in0.0 mm 0.00 in0.0 mm
03:27 AM 52.8°F11.6°C -32.5°F-35.8°C 1% 0.9 mph W1.4 kmh W 4.4 mph7.1 kmh 29.57 in1001.4 mb 0.00 in0.0 mm 0.00 in0.0 mm 0.00 in0.0 mm
03:26 AM 52.9°F11.6°C -32.4°F-35.8°C 1% 0.7 mph WSW1.1 kmh WSW 4.4 mph7.1 kmh 29.56 in1001.0 mb 0.00 in0.0 mm 0.00 in0.0 mm 0.00 in0.0 mm
03:25 AM 52.9°F11.6°C -32.4°F-35.8°C 1% 0.4 mph WSW0.6 kmh WSW 4.4 mph7.1 kmh 29.57 in1001.4 mb 0.00 in0.0 mm 0.00 in0.0 mm 0.00 in0.0 mm
03:24 AM 52.9°F11.6°C -32.4°F-35.8°C 1% 0.5 mph WSW0.8 kmh WSW 4.4 mph7.1 kmh 29.57 in1001.4 mb 0.00 in0.0 mm 0.00 in0.0 mm 0.00 in0.0 mm
03:23 AM 52.9°F11.6°C -32.4°F-35.8°C 1% 0.6 mph WSW1.0 kmh WSW 4.4 mph7.1 kmh 29.57 in1001.4 mb 0.00 in0.0 mm 0.00 in0.0 mm 0.00 in0.0 mm
03:22 AM 52.9°F11.6°C -32.4°F-35.8°C 1% 0.6 mph WSW1.0 kmh WSW 4.4 mph7.1 kmh 29.57 in1001.4 mb 0.00 in0.0 mm 0.00 in0.0 mm 0.00 in0.0 mm
03:21 AM 52.9°F11.6°C -32.4°F-35.8°C 1% 0.9 mph W1.4 kmh W 4.4 mph7.1 kmh 29.57 in1001.4 mb 0.00 in0.0 mm 0.00 in0.0 mm 0.00 in0.0 mm
03:20 AM 53.1°F11.7°C -32.3°F-35.7°C 1% 1.4 mph W2.3 kmh W 4.4 mph7.1 kmh 29.57 in1001.4 mb 0.00 in0.0 mm 0.00 in0.0 mm 0.00 in0.0 mm
03:19 AM 52.9°F11.6°C -32.4°F-35.8°C 1% 1.4 mph WSW2.3 kmh WSW 4.4 mph7.1 kmh 29.56 in1001.0 mb 0.00 in0.0 mm 0.00 in0.0 mm 0.00 in0.0 mm
03:18 AM 53.1°F11.7°C -32.3°F-35.7°C 1% 0.6 mph WSW1.0 kmh WSW 1.9 mph3.1 kmh 29.56 in1001.0 mb 0.00 in0.0 mm 0.00 in0.0 mm 0.00 in0.0 mm
03:17 AM 53.1°F11.7°C -32.3°F-35.7°C 1% 0.5 mph WSW0.8 kmh WSW 1.6 mph2.6 kmh 29.57 in1001.4 mb 0.00 in0.0 mm 0.00 in0.0 mm 0.00 in0.0 mm
03:16 AM 53.1°F11.7°C -32.3°F-35.7°C 1% 0.6 mph W1.0 kmh W 1.6 mph2.6 kmh 29.56 in1001.0 mb 0.00 in0.0 mm 0.00 in0.0 mm 0.00 in0.0 mm
03:15 AM 53.1°F11.7°C -32.3°F-35.7°C 1% 0.6 mph WNW1.0 kmh WNW 2.3 mph3.7 kmh 29.57 in1001.4 mb 0.00 in0.0 mm 0.00 in0.0 mm 0.00 in0.0 mm
03:14 AM 53.1°F11.7°C -32.3°F-35.7°C 1% 0.6 mph W1.0 kmh W 2.3 mph3.7 kmh 29.57 in1001.4 mb 0.00 in0.0 mm 0.00 in0.0 mm 0.00 in0.0 mm
03:13 AM 53.1°F11.7°C -32.3°F-35.7°C 1% 0.7 mph WSW1.1 kmh WSW 3.1 mph5.0 kmh 29.56 in1001.0 mb 0.00 in0.0 mm 0.00 in0.0 mm 0.00 in0.0 mm
03:12 AM 53.1°F11.7°C -32.3°F-35.7°C 1% 0.6 mph W1.0 kmh W 3.1 mph5.0 kmh 29.56 in1001.0 mb 0.00 in0.0 mm 0.00 in0.0 mm 0.00 in0.0 mm
03:11 AM 53.1°F11.7°C -32.3°F-35.7°C 1% 0.5 mph W0.8 kmh W 3.1 mph5.0 kmh 29.56 in1001.0 mb 0.00 in0.0 mm 0.00 in0.0 mm 0.00 in0.0 mm
03:10 AM 53.3°F11.8°C -32.2°F-35.7°C 1% 0.6 mph ESE1.0 kmh ESE 3.1 mph5.0 kmh 29.56 in1001.0 mb 0.00 in0.0 mm 0.00 in0.0 mm 0.00 in0.0 mm
03:09 AM 53.3°F11.8°C -32.2°F-35.7°C 1% 0.6 mph SE1.0 kmh SE 3.1 mph5.0 kmh 29.56 in1001.0 mb 0.00 in0.0 mm 0.00 in0.0 mm 0.00 in0.0 mm
03:08 AM 53.3°F11.8°C -32.2°F-35.7°C 1% 0.7 mph WSW1.1 kmh WSW 3.1 mph5.0 kmh 29.57 in1001.4 mb 0.00 in0.0 mm 0.00 in0.0 mm 0.00 in0.0 mm
03:07 AM 53.3°F11.8°C -32.2°F-35.7°C 1% 1.2 mph WSW1.9 kmh WSW 3.1 mph5.0 kmh 29.56 in1001.0 mb 0.00 in0.0 mm 0.00 in0.0 mm 0.00 in0.0 mm
03:06 AM 53.3°F11.8°C -32.2°F-35.7°C 1% 1.0 mph W1.6 kmh W 3.1 mph5.0 kmh 29.56 in1001.0 mb 0.00 in0.0 mm 0.00 in0.0 mm 0.00 in0.0 mm
03:05 AM 53.3°F11.8°C -32.2°F-35.7°C 1% 1.3 mph SW2.1 kmh SW 3.1 mph5.0 kmh 29.56 in1001.0 mb 0.00 in0.0 mm 0.00 in0.0 mm 0.00 in0.0 mm
03:04 AM 53.3°F11.8°C -32.2°F-35.7°C 1% 1.3 mph SW2.1 kmh SW 3.1 mph5.0 kmh 29.56 in1001.0 mb 0.00 in0.0 mm 0.00 in0.0 mm 0.00 in0.0 mm
03:03 AM 53.3°F11.8°C -32.2°F-35.7°C 1% 0.4 mph WSW0.6 kmh WSW 3.1 mph5.0 kmh 29.56 in1001.0 mb 0.00 in0.0 mm 0.00 in0.0 mm 0.00 in0.0 mm
03:02 AM 53.4°F11.9°C -32.1°F-35.6°C 1% 0.6 mph WSW1.0 kmh WSW 3.1 mph5.0 kmh 29.57 in1001.4 mb 0.00 in0.0 mm 0.00 in0.0 mm 0.00 in0.0 mm
03:01 AM 53.4°F11.9°C -32.1°F-35.6°C 1% 0.7 mph WSW1.1 kmh WSW 3.1 mph5.0 kmh 29.57 in1001.4 mb 0.00 in0.0 mm 0.00 in0.0 mm 0.00 in0.0 mm
03:00 AM 53.4°F11.9°C -32.1°F-35.6°C 1% 1.0 mph WSW1.6 kmh WSW 3.1 mph5.0 kmh 29.57 in1001.4 mb 0.00 in0.0 mm 0.00 in0.0 mm 0.00 in0.0 mm
02:59 AM 53.4°F11.9°C -32.1°F-35.6°C 1% 1.1 mph WSW1.8 kmh WSW 3.1 mph5.0 kmh 29.57 in1001.4 mb 0.00 in0.0 mm 0.00 in0.0 mm 0.00 in0.0 mm
02:58 AM 53.4°F11.9°C -32.1°F-35.6°C 1% 0.8 mph W1.3 kmh W 1.9 mph3.1 kmh 29.57 in1001.4 mb 0.00 in0.0 mm 0.00 in0.0 mm 0.00 in0.0 mm
02:57 AM 53.4°F11.9°C -32.1°F-35.6°C 1% 0.5 mph W0.8 kmh W 1.6 mph2.6 kmh 29.57 in1001.4 mb 0.00 in0.0 mm 0.00 in0.0 mm 0.00 in0.0 mm
02:56 AM 53.4°F11.9°C -32.1°F-35.6°C 1% 0.3 mph WSW0.5 kmh WSW 3.9 mph6.3 kmh 29.57 in1001.4 mb 0.00 in0.0 mm 0.00 in0.0 mm 0.00 in0.0 mm
02:55 AM 53.4°F11.9°C -32.1°F-35.6°C 1% 0.4 mph WSW0.6 kmh WSW 3.9 mph6.3 kmh 29.57 in1001.4 mb 0.00 in0.0 mm 0.00 in0.0 mm 0.00 in0.0 mm
02:54 AM 53.4°F11.9°C -32.1°F-35.6°C 1% 0.5 mph W0.8 kmh W 3.9 mph6.3 kmh 29.57 in1001.4 mb 0.00 in0.0 mm 0.00 in0.0 mm 0.00 in0.0 mm
02:53 AM 53.4°F11.9°C -32.1°F-35.6°C 1% 0.6 mph W1.0 kmh W 3.9 mph6.3 kmh 29.57 in1001.4 mb 0.00 in0.0 mm 0.00 in0.0 mm 0.00 in0.0 mm
02:52 AM 53.6°F12.0°C -31.9°F-35.5°C 1% 0.4 mph WSW0.6 kmh WSW 3.9 mph6.3 kmh 29.56 in1001.0 mb 0.00 in0.0 mm 0.00 in0.0 mm 0.00 in0.0 mm
02:51 AM 53.6°F12.0°C -31.9°F-35.5°C 1% 0.3 mph WSW0.5 kmh WSW 3.9 mph6.3 kmh 29.56 in1001.0 mb 0.00 in0.0 mm 0.00 in0.0 mm 0.00 in0.0 mm
02:50 AM 53.6°F12.0°C -31.9°F-35.5°C 1% 0.6 mph SW1.0 kmh SW 3.9 mph6.3 kmh 29.56 in1001.0 mb 0.00 in0.0 mm 0.00 in0.0 mm 0.00 in0.0 mm
02:49 AM 53.6°F12.0°C -31.9°F-35.5°C 1% 1.0 mph SW1.6 kmh SW 3.9 mph6.3 kmh 29.56 in1001.0 mb 0.00 in0.0 mm 0.00 in0.0 mm 0.00 in0.0 mm
02:48 AM 53.6°F12.0°C -31.9°F-35.5°C 1% 0.9 mph W1.4 kmh W 3.9 mph6.3 kmh 29.56 in1001.0 mb 0.00 in0.0 mm 0.00 in0.0 mm 0.00 in0.0 mm
02:47 AM 53.6°F12.0°C -31.9°F-35.5°C 1% 1.3 mph W2.1 kmh W 3.9 mph6.3 kmh 29.56 in1001.0 mb 0.00 in0.0 mm 0.00 in0.0 mm 0.00 in0.0 mm
02:46 AM 53.6°F12.0°C -31.9°F-35.5°C 1% 1.3 mph W2.1 kmh W 3.9 mph6.3 kmh 29.56 in1001.0 mb 0.00 in0.0 mm 0.00 in0.0 mm 0.00 in0.0 mm
02:45 AM 53.6°F12.0°C -31.9°F-35.5°C 1% 0.8 mph W1.3 kmh W 3.5 mph5.6 kmh 29.56 in1001.0 mb 0.00 in0.0 mm 0.00 in0.0 mm 0.00 in0.0 mm
02:44 AM 53.7°F12.1°C -31.9°F-35.5°C 1% 0.8 mph WNW1.3 kmh WNW 3.5 mph5.6 kmh 29.56 in1001.0 mb 0.00 in0.0 mm 0.00 in0.0 mm 0.00 in0.0 mm
02:43 AM 53.7°F12.1°C -31.9°F-35.5°C 1% 1.0 mph W1.6 kmh W 3.5 mph5.6 kmh 29.56 in1001.0 mb 0.00 in0.0 mm 0.00 in0.0 mm 0.00 in0.0 mm
02:42 AM 53.7°F12.1°C -31.9°F-35.5°C 1% 0.9 mph WSW1.4 kmh WSW 3.5 mph5.6 kmh 29.56 in1001.0 mb 0.00 in0.0 mm 0.00 in0.0 mm 0.00 in0.0 mm
02:41 AM 53.7°F12.1°C -31.9°F-35.5°C 1% 1.3 mph WSW2.1 kmh WSW 3.5 mph5.6 kmh 29.56 in1001.0 mb 0.00 in0.0 mm 0.00 in0.0 mm 0.00 in0.0 mm
02:40 AM 53.7°F12.1°C -31.9°F-35.5°C 1% 1.9 mph SW3.1 kmh SW 3.5 mph5.6 kmh 29.56 in1001.0 mb 0.00 in0.0 mm 0.00 in0.0 mm 0.00 in0.0 mm
02:39 AM 53.7°F12.1°C -31.9°F-35.5°C 1% 1.3 mph SW2.1 kmh SW 3.5 mph5.6 kmh 29.56 in1001.0 mb 0.00 in0.0 mm 0.00 in0.0 mm 0.00 in0.0 mm
02:38 AM 53.7°F12.1°C -31.9°F-35.5°C 1% 0.9 mph WSW1.4 kmh WSW 3.5 mph5.6 kmh 29.56 in1001.0 mb 0.00 in0.0 mm 0.00 in0.0 mm 0.00 in0.0 mm
02:37 AM 53.7°F12.1°C -31.9°F-35.5°C 1% 1.3 mph WSW2.1 kmh WSW 3.5 mph5.6 kmh 29.56 in1001.0 mb 0.00 in0.0 mm 0.00 in0.0 mm 0.00 in0.0 mm
02:36 AM 53.9°F12.2°C -31.7°F-35.4°C 1% 1.1 mph WSW1.8 kmh WSW 4.7 mph7.6 kmh 29.56 in1001.0 mb 0.00 in0.0 mm 0.00 in0.0 mm 0.00 in0.0 mm
02:35 AM 53.9°F12.2°C -31.7°F-35.4°C 1% 0.7 mph WNW1.1 kmh WNW 4.7 mph7.6 kmh 29.56 in1001.0 mb 0.00 in0.0 mm 0.00 in0.0 mm 0.00 in0.0 mm
02:34 AM 53.9°F12.2°C -31.7°F-35.4°C 1% 0.8 mph W1.3 kmh W 4.7 mph7.6 kmh 29.56 in1001.0 mb 0.00 in0.0 mm 0.00 in0.0 mm 0.00 in0.0 mm
02:33 AM 53.9°F12.2°C -31.7°F-35.4°C 1% 0.6 mph W1.0 kmh W 4.7 mph7.6 kmh 29.56 in1001.0 mb 0.00 in0.0 mm 0.00 in0.0 mm 0.00 in0.0 mm
02:32 AM 53.9°F12.2°C -31.7°F-35.4°C 1% 0.7 mph W1.1 kmh W 4.7 mph7.6 kmh 29.56 in1001.0 mb 0.00 in0.0 mm 0.00 in0.0 mm 0.00 in0.0 mm
02:31 AM 53.9°F12.2°C -31.7°F-35.4°C 1% 0.9 mph W1.4 kmh W 4.7 mph7.6 kmh 29.56 in1001.0 mb 0.00 in0.0 mm 0.00 in0.0 mm 0.00 in0.0 mm
02:30 AM 53.9°F12.2°C -31.7°F-35.4°C 1% 0.8 mph WSW1.3 kmh WSW 4.7 mph7.6 kmh 29.56 in1001.0 mb 0.00 in0.0 mm 0.00 in0.0 mm 0.00 in0.0 mm
02:29 AM 54.1°F12.3°C -31.6°F-35.3°C 1% 0.9 mph W1.4 kmh W 4.7 mph7.6 kmh 29.56 in1001.0 mb 0.00 in0.0 mm 0.00 in0.0 mm 0.00 in0.0 mm
02:28 AM 54.1°F12.3°C -31.6°F-35.3°C 1% 2.0 mph WSW3.2 kmh WSW 4.7 mph7.6 kmh 29.56 in1001.0 mb 0.00 in0.0 mm 0.00 in0.0 mm 0.00 in0.0 mm
02:27 AM 54.1°F12.3°C -31.6°F-35.3°C 1% 1.5 mph WSW2.4 kmh WSW 4.7 mph7.6 kmh 29.56 in1001.0 mb 0.00 in0.0 mm 0.00 in0.0 mm 0.00 in0.0 mm
02:26 AM 54.1°F12.3°C -31.6°F-35.3°C 1% 1.0 mph WSW1.6 kmh WSW 2.3 mph3.7 kmh 29.56 in1001.0 mb 0.00 in0.0 mm 0.00 in0.0 mm 0.00 in0.0 mm
02:25 AM 54.1°F12.3°C -31.6°F-35.3°C 1% 1.2 mph WSW1.9 kmh WSW 2.3 mph3.7 kmh 29.56 in1001.0 mb 0.00 in0.0 mm 0.00 in0.0 mm 0.00 in0.0 mm
02:24 AM 54.1°F12.3°C -31.6°F-35.3°C 1% 1.1 mph W1.8 kmh W 2.3 mph3.7 kmh 29.56 in1001.0 mb 0.00 in0.0 mm 0.00 in0.0 mm 0.00 in0.0 mm
02:23 AM 54.1°F12.3°C -31.6°F-35.3°C 1% 1.0 mph W1.6 kmh W 2.3 mph3.7 kmh 29.56 in1001.0 mb 0.00 in0.0 mm 0.00 in0.0 mm 0.00 in0.0 mm
02:22 AM 54.1°F12.3°C -31.6°F-35.3°C 1% 1.0 mph W1.6 kmh W 2.3 mph3.7 kmh 29.56 in1001.0 mb 0.00 in0.0 mm 0.00 in0.0 mm 0.00 in0.0 mm
02:21 AM 54.1°F12.3°C -31.6°F-35.3°C 1% 1.0 mph WSW1.6 kmh WSW 3.9 mph6.3 kmh 29.56 in1001.0 mb 0.00 in0.0 mm 0.00 in0.0 mm 0.00 in0.0 mm
02:20 AM 54.1°F12.3°C -31.6°F-35.3°C 1% 1.1 mph W1.8 kmh W 3.9 mph6.3 kmh 29.56 in1001.0 mb 0.00 in0.0 mm 0.00 in0.0 mm 0.00 in0.0 mm
02:19 AM 54.1°F12.3°C -31.6°F-35.3°C 1% 1.1 mph WSW1.8 kmh WSW 3.9 mph6.3 kmh 29.56 in1001.0 mb 0.00 in0.0 mm 0.00 in0.0 mm 0.00 in0.0 mm
02:18 AM 54.1°F12.3°C -31.6°F-35.3°C 1% 0.9 mph SW1.4 kmh SW 3.9 mph6.3 kmh 29.56 in1001.0 mb 0.00 in0.0 mm 0.00 in0.0 mm 0.00 in0.0 mm
02:17 AM 54.1°F12.3°C -31.6°F-35.3°C 1% 0.8 mph WSW1.3 kmh WSW 3.9 mph6.3 kmh 29.57 in1001.4 mb 0.00 in0.0 mm 0.00 in0.0 mm 0.00 in0.0 mm
02:16 AM 54.1°F12.3°C -31.6°F-35.3°C 1% 0.7 mph WSW1.1 kmh WSW 3.9 mph6.3 kmh 29.57 in1001.4 mb 0.00 in0.0 mm 0.00 in0.0 mm 0.00 in0.0 mm
02:15 AM 54.1°F12.3°C -31.6°F-35.3°C 1% 0.6 mph W1.0 kmh W 3.9 mph6.3 kmh 29.57 in1001.4 mb 0.00 in0.0 mm 0.00 in0.0 mm 0.00 in0.0 mm
02:14 AM 54.3°F12.4°C -31.5°F-35.3°C 1% 0.6 mph W1.0 kmh W 3.9 mph6.3 kmh 29.57 in1001.4 mb 0.00 in0.0 mm 0.00 in0.0 mm 0.00 in0.0 mm
02:13 AM 54.3°F12.4°C -31.5°F-35.3°C 1% 1.0 mph WSW1.6 kmh WSW 3.9 mph6.3 kmh 29.57 in1001.4 mb 0.00 in0.0 mm 0.00 in0.0 mm 0.00 in0.0 mm
02:12 AM 54.3°F12.4°C -31.5°F-35.3°C 1% 1.9 mph SW3.1 kmh SW 3.9 mph6.3 kmh 29.57 in1001.4 mb 0.00 in0.0 mm 0.00 in0.0 mm 0.00 in0.0 mm
02:11 AM 54.3°F12.4°C -31.5°F-35.3°C 1% 1.9 mph SSW3.1 kmh SSW 3.9 mph6.3 kmh 29.57 in1001.4 mb 0.00 in0.0 mm 0.00 in0.0 mm 0.00 in0.0 mm
02:10 AM 54.3°F12.4°C -31.5°F-35.3°C 1% 1.1 mph WSW1.8 kmh WSW 3.9 mph6.3 kmh 29.57 in1001.4 mb 0.00 in0.0 mm 0.00 in0.0 mm 0.00 in0.0 mm
02:09 AM 54.3°F12.4°C -31.5°F-35.3°C 1% 1.4 mph WSW2.3 kmh WSW 6.0 mph9.7 kmh 29.57 in1001.4 mb 0.00 in0.0 mm 0.00 in0.0 mm 0.00 in0.0 mm
02:08 AM 54.3°F12.4°C -31.5°F-35.3°C 1% 1.4 mph WSW2.3 kmh WSW 6.3 mph10.1 kmh 29.57 in1001.4 mb 0.00 in0.0 mm 0.00 in0.0 mm 0.00 in0.0 mm
02:07 AM 54.3°F12.4°C -31.5°F-35.3°C 1% 1.3 mph WSW2.1 kmh WSW 6.3 mph10.1 kmh 29.57 in1001.4 mb 0.00 in0.0 mm 0.00 in0.0 mm 0.00 in0.0 mm
02:06 AM 54.3°F12.4°C -31.5°F-35.3°C 1% 1.0 mph W1.6 kmh W 6.3 mph10.1 kmh 29.57 in1001.4 mb 0.00 in0.0 mm 0.00 in0.0 mm 0.00 in0.0 mm
02:05 AM 54.3°F12.4°C -31.5°F-35.3°C 1% 1.1 mph WSW1.8 kmh WSW 6.3 mph10.1 kmh 29.57 in1001.4 mb 0.00 in0.0 mm 0.00 in0.0 mm 0.00 in0.0 mm
02:04 AM 54.5°F12.5°C -31.4°F-35.2°C 1% 1.9 mph WSW3.1 kmh WSW 6.3 mph10.1 kmh 29.57 in1001.4 mb 0.00 in0.0 mm 0.00 in0.0 mm 0.00 in0.0 mm
02:03 AM 54.5°F12.5°C -31.4°F-35.2°C 1% 2.2 mph W3.5 kmh W 6.3 mph10.1 kmh 29.57 in1001.4 mb 0.00 in0.0 mm 0.00 in0.0 mm 0.00 in0.0 mm
02:02 AM 54.5°F12.5°C -31.4°F-35.2°C 1% 1.7 mph WNW2.7 kmh WNW 9.4 mph15.1 kmh 29.57 in1001.4 mb 0.00 in0.0 mm 0.00 in0.0 mm 0.00 in0.0 mm
02:01 AM 54.5°F12.5°C -31.4°F-35.2°C 1% 2.5 mph W4.0 kmh W 9.4 mph15.1 kmh 29.56 in1001.0 mb 0.00 in0.0 mm 0.00 in0.0 mm 0.00 in0.0 mm
02:00 AM 54.5°F12.5°C -31.4°F-35.2°C 1% 4.3 mph W6.9 kmh W 9.4 mph15.1 kmh 29.56 in1001.0 mb 0.00 in0.0 mm 0.00 in0.0 mm 0.00 in0.0 mm
01:59 AM 54.5°F12.5°C -31.4°F-35.2°C 1% 3.5 mph WSW5.6 kmh WSW 9.4 mph15.1 kmh 29.56 in1001.0 mb 0.00 in0.0 mm 0.00 in0.0 mm 0.00 in0.0 mm
01:58 AM 54.5°F12.5°C -31.4°F-35.2°C 1% 1.5 mph WSW2.4 kmh WSW 9.4 mph15.1 kmh 29.56 in1001.0 mb 0.00 in0.0 mm 0.00 in0.0 mm 0.00 in0.0 mm
01:57 AM 54.5°F12.5°C -31.4°F-35.2°C 1% 1.0 mph W1.6 kmh W 9.4 mph15.1 kmh 29.56 in1001.0 mb 0.00 in0.0 mm 0.00 in0.0 mm 0.00 in0.0 mm
01:56 AM 54.5°F12.5°C -31.4°F-35.2°C 1% 1.1 mph W1.8 kmh W 9.4 mph15.1 kmh 29.56 in1001.0 mb 0.00 in0.0 mm 0.00 in0.0 mm 0.00 in0.0 mm
01:55 AM 54.5°F12.5°C -31.4°F-35.2°C 1% 1.7 mph W2.7 kmh W 9.4 mph15.1 kmh 29.56 in1001.0 mb 0.00 in0.0 mm 0.00 in0.0 mm 0.00 in0.0 mm
01:54 AM 54.5°F12.5°C -31.4°F-35.2°C 1% 2.6 mph WSW4.2 kmh WSW 9.4 mph15.1 kmh 29.57 in1001.4 mb 0.00 in0.0 mm 0.00 in0.0 mm 0.00 in0.0 mm
01:53 AM 54.5°F12.5°C -31.4°F-35.2°C 1% 3.5 mph WSW5.6 kmh WSW 9.4 mph15.1 kmh 29.57 in1001.4 mb 0.00 in0.0 mm 0.00 in0.0 mm 0.00 in0.0 mm
01:52 AM 54.5°F12.5°C -31.4°F-35.2°C 1% 3.1 mph W5.0 kmh W 9.4 mph15.1 kmh 29.57 in1001.4 mb 0.00 in0.0 mm 0.00 in0.0 mm 0.00 in0.0 mm
01:51 AM 54.5°F12.5°C -31.4°F-35.2°C 1% 2.2 mph W3.5 kmh W 5.4 mph8.7 kmh 29.57 in1001.4 mb 0.00 in0.0 mm 0.00 in0.0 mm 0.00 in0.0 mm
01:50 AM 54.5°F12.5°C -31.4°F-35.2°C 1% 1.7 mph W2.7 kmh W 5.4 mph8.7 kmh 29.57 in1001.4 mb 0.00 in0.0 mm 0.00 in0.0 mm 0.00 in0.0 mm
01:49 AM 54.5°F12.5°C -31.4°F-35.2°C 1% 1.7 mph W2.7 kmh W 5.4 mph8.7 kmh 29.57 in1001.4 mb 0.00 in0.0 mm 0.00 in0.0 mm 0.00 in0.0 mm
01:48 AM 54.5°F12.5°C -31.4°F-35.2°C 1% 1.4 mph W2.3 kmh W 5.4 mph8.7 kmh 29.57 in1001.4 mb 0.00 in0.0 mm 0.00 in0.0 mm 0.00 in0.0 mm
01:47 AM 54.5°F12.5°C -31.4°F-35.2°C 1% 1.0 mph W1.6 kmh W 5.4 mph8.7 kmh 29.57 in1001.4 mb 0.00 in0.0 mm 0.00 in0.0 mm 0.00 in0.0 mm
01:46 AM 54.6°F12.6°C -31.3°F-35.2°C 1% 1.6 mph WSW2.6 kmh WSW 5.4 mph8.7 kmh 29.57 in1001.4 mb 0.00 in0.0 mm 0.00 in0.0 mm 0.00 in0.0 mm
01:45 AM 54.6°F12.6°C -31.3°F-35.2°C 1% 2.4 mph WSW3.9 kmh WSW 5.4 mph8.7 kmh 29.57 in1001.4 mb 0.00 in0.0 mm 0.00 in0.0 mm 0.00 in0.0 mm
01:44 AM 54.6°F12.6°C -31.3°F-35.2°C 1% 1.9 mph W3.1 kmh W 5.4 mph8.7 kmh 29.57 in1001.4 mb 0.00 in0.0 mm 0.00 in0.0 mm 0.00 in0.0 mm
01:43 AM 54.6°F12.6°C -31.3°F-35.2°C 1% 1.3 mph W2.1 kmh W 4.4 mph7.1 kmh 29.57 in1001.4 mb 0.00 in0.0 mm 0.00 in0.0 mm 0.00 in0.0 mm
01:42 AM 54.6°F12.6°C -31.3°F-35.2°C 1% 1.8 mph WSW2.9 kmh WSW 8.2 mph13.2 kmh 29.57 in1001.4 mb 0.00 in0.0 mm 0.00 in0.0 mm 0.00 in0.0 mm
01:41 AM 54.6°F12.6°C -31.3°F-35.2°C 1% 2.0 mph WSW3.2 kmh WSW 8.2 mph13.2 kmh 29.57 in1001.4 mb 0.00 in0.0 mm 0.00 in0.0 mm 0.00 in0.0 mm
01:40 AM 54.6°F12.6°C -31.3°F-35.2°C 1% 1.9 mph W3.1 kmh W 8.2 mph13.2 kmh 29.56 in1001.0 mb 0.00 in0.0 mm 0.00 in0.0 mm 0.00 in0.0 mm
01:39 AM 54.8°F12.7°C -31.2°F-35.1°C 1% 1.1 mph WNW1.8 kmh WNW 8.2 mph13.2 kmh 29.56 in1001.0 mb 0.00 in0.0 mm 0.00 in0.0 mm 0.00 in0.0 mm
01:38 AM 54.8°F12.7°C -31.2°F-35.1°C 1% 1.9 mph W3.1 kmh W 8.2 mph13.2 kmh 29.55 in1000.7 mb 0.00 in0.0 mm 0.00 in0.0 mm 0.00 in0.0 mm
01:37 AM 54.8°F12.7°C -31.2°F-35.1°C 1% 2.2 mph WSW3.5 kmh WSW 8.2 mph13.2 kmh 29.56 in1001.0 mb 0.00 in0.0 mm 0.00 in0.0 mm 0.00 in0.0 mm
01:36 AM 54.8°F12.7°C -31.2°F-35.1°C 1% 1.3 mph WSW2.1 kmh WSW 8.2 mph13.2 kmh 29.56 in1001.0 mb 0.00 in0.0 mm 0.00 in0.0 mm 0.00 in0.0 mm
01:35 AM 54.8°F12.7°C -31.2°F-35.1°C 1% 2.0 mph NW3.2 kmh NW 8.2 mph13.2 kmh 29.56 in1001.0 mb 0.00 in0.0 mm 0.00 in0.0 mm 0.00 in0.0 mm
01:34 AM 54.8°F12.7°C -31.2°F-35.1°C 1% 2.5 mph NW4.0 kmh NW 8.2 mph13.2 kmh 29.56 in1001.0 mb 0.00 in0.0 mm 0.00 in0.0 mm 0.00 in0.0 mm
01:33 AM 54.8°F12.7°C -31.2°F-35.1°C 1% 3.6 mph WSW5.8 kmh WSW 8.2 mph13.2 kmh 29.56 in1001.0 mb 0.00 in0.0 mm 0.00 in0.0 mm 0.00 in0.0 mm
01:32 AM 54.8°F12.7°C -31.2°F-35.1°C 1% 2.5 mph WSW4.0 kmh WSW 8.2 mph13.2 kmh 29.56 in1001.0 mb 0.00 in0.0 mm 0.00 in0.0 mm 0.00 in0.0 mm
01:31 AM 54.8°F12.7°C -31.2°F-35.1°C 1% 1.8 mph NW2.9 kmh NW 6.3 mph10.1 kmh 29.56 in1001.0 mb 0.00 in0.0 mm 0.00 in0.0 mm 0.00 in0.0 mm
01:30 AM 54.8°F12.7°C -31.2°F-35.1°C 1% 2.7 mph NW4.3 kmh NW 6.3 mph10.1 kmh 29.56 in1001.0 mb 0.00 in0.0 mm 0.00 in0.0 mm 0.00 in0.0 mm
01:29 AM 54.8°F12.7°C -31.2°F-35.1°C 1% 2.0 mph WSW3.2 kmh WSW 6.3 mph10.1 kmh 29.56 in1001.0 mb 0.00 in0.0 mm 0.00 in0.0 mm 0.00 in0.0 mm
01:28 AM 54.8°F12.7°C -31.2°F-35.1°C 1% 2.0 mph W3.2 kmh W 4.7 mph7.6 kmh 29.57 in1001.4 mb 0.00 in0.0 mm 0.00 in0.0 mm 0.00 in0.0 mm
01:27 AM 54.8°F12.7°C -31.2°F-35.1°C 1% 1.8 mph W2.9 kmh W 4.7 mph7.6 kmh 29.57 in1001.4 mb 0.00 in0.0 mm 0.00 in0.0 mm 0.00 in0.0 mm
01:26 AM 54.8°F12.7°C -31.2°F-35.1°C 1% 1.4 mph W2.3 kmh W 4.7 mph7.6 kmh 29.56 in1001.0 mb 0.00 in0.0 mm 0.00 in0.0 mm 0.00 in0.0 mm
01:25 AM 54.8°F12.7°C -31.2°F-35.1°C 1% 2.1 mph W3.4 kmh W 4.7 mph7.6 kmh 29.56 in1001.0 mb 0.00 in0.0 mm 0.00 in0.0 mm 0.00 in0.0 mm
01:24 AM 54.8°F12.7°C -31.2°F-35.1°C 1% 2.5 mph W4.0 kmh W 6.0 mph9.7 kmh 29.56 in1001.0 mb 0.00 in0.0 mm 0.00 in0.0 mm 0.00 in0.0 mm
01:23 AM 54.8°F12.7°C -31.2°F-35.1°C 1% 1.8 mph WSW2.9 kmh WSW 6.0 mph9.7 kmh 29.56 in1001.0 mb 0.00 in0.0 mm 0.00 in0.0 mm 0.00 in0.0 mm
01:22 AM 55.0°F12.8°C -31.1°F-35.1°C 1% 1.8 mph SW2.9 kmh SW 7.0 mph11.3 kmh 29.56 in1001.0 mb 0.00 in0.0 mm 0.00 in0.0 mm 0.00 in0.0 mm
01:21 AM 55.0°F12.8°C -31.1°F-35.1°C 1% 1.9 mph SW3.1 kmh SW 7.0 mph11.3 kmh 29.56 in1001.0 mb 0.00 in0.0 mm 0.00 in0.0 mm 0.00 in0.0 mm
01:20 AM 55.0°F12.8°C -31.1°F-35.1°C 1% 1.3 mph WSW2.1 kmh WSW 7.0 mph11.3 kmh 29.56 in1001.0 mb 0.00 in0.0 mm 0.00 in0.0 mm 0.00 in0.0 mm
01:19 AM 55.0°F12.8°C -31.1°F-35.1°C 1% 1.3 mph WSW2.1 kmh WSW 7.0 mph11.3 kmh 29.56 in1001.0 mb 0.00 in0.0 mm 0.00 in0.0 mm 0.00 in0.0 mm
01:18 AM 55.0°F12.8°C -31.1°F-35.1°C 1% 1.9 mph W3.1 kmh W 7.0 mph11.3 kmh 29.56 in1001.0 mb 0.00 in0.0 mm 0.00 in0.0 mm 0.00 in0.0 mm
01:17 AM 55.0°F12.8°C -31.1°F-35.1°C 1% 2.4 mph WNW3.9 kmh WNW 7.0 mph11.3 kmh 29.56 in1001.0 mb 0.00 in0.0 mm 0.00 in0.0 mm 0.00 in0.0 mm
01:16 AM 55.0°F12.8°C -31.1°F-35.1°C 1% 3.0 mph W4.8 kmh W 7.0 mph11.3 kmh 29.56 in1001.0 mb 0.00 in0.0 mm 0.00 in0.0 mm 0.00 in0.0 mm
01:15 AM 55.0°F12.8°C -31.1°F-35.1°C 1% 2.5 mph W4.0 kmh W 7.0 mph11.3 kmh 29.56 in1001.0 mb 0.00 in0.0 mm 0.00 in0.0 mm 0.00 in0.0 mm
01:14 AM 55.0°F12.8°C -31.1°F-35.1°C 1% 2.6 mph W4.2 kmh W 7.0 mph11.3 kmh 29.56 in1001.0 mb 0.00 in0.0 mm 0.00 in0.0 mm 0.00 in0.0 mm
01:13 AM 55.0°F12.8°C -31.1°F-35.1°C 1% 2.5 mph W4.0 kmh W 7.0 mph11.3 kmh 29.56 in1001.0 mb 0.00 in0.0 mm 0.00 in0.0 mm 0.00 in0.0 mm
01:12 AM 55.0°F12.8°C -31.1°F-35.1°C 1% 1.8 mph W2.9 kmh W 6.3 mph10.1 kmh 29.56 in1001.0 mb 0.00 in0.0 mm 0.00 in0.0 mm 0.00 in0.0 mm
01:11 AM 55.0°F12.8°C -31.1°F-35.1°C 1% 2.1 mph W3.4 kmh W 6.3 mph10.1 kmh 29.56 in1001.0 mb 0.00 in0.0 mm 0.00 in0.0 mm 0.00 in0.0 mm
01:10 AM 55.0°F12.8°C -31.1°F-35.1°C 1% 1.2 mph W1.9 kmh W 6.3 mph10.1 kmh 29.56 in1001.0 mb 0.00 in0.0 mm 0.00 in0.0 mm 0.00 in0.0 mm
01:09 AM 55.0°F12.8°C -31.1°F-35.1°C 1% 1.1 mph WNW1.8 kmh WNW 6.3 mph10.1 kmh 29.56 in1001.0 mb 0.00 in0.0 mm 0.00 in0.0 mm 0.00 in0.0 mm
01:08 AM 55.0°F12.8°C -31.1°F-35.1°C 1% 2.0 mph W3.2 kmh W 6.3 mph10.1 kmh 29.56 in1001.0 mb 0.00 in0.0 mm 0.00 in0.0 mm 0.00 in0.0 mm
01:07 AM 55.2°F12.9°C -30.9°F-34.9°C 1% 2.9 mph SW4.7 kmh SW 6.3 mph10.1 kmh 29.56 in1001.0 mb 0.00 in0.0 mm 0.00 in0.0 mm 0.00 in0.0 mm
01:06 AM 55.0°F12.8°C -31.1°F-35.1°C 1% 2.4 mph SW3.9 kmh SW 6.3 mph10.1 kmh 29.56 in1001.0 mb 0.00 in0.0 mm 0.00 in0.0 mm 0.00 in0.0 mm
01:05 AM 55.0°F12.8°C -31.1°F-35.1°C 1% 1.5 mph WSW2.4 kmh WSW 4.4 mph7.1 kmh 29.56 in1001.0 mb 0.00 in0.0 mm 0.00 in0.0 mm 0.00 in0.0 mm
01:04 AM 55.2°F12.9°C -30.9°F-34.9°C 1% 1.2 mph W1.9 kmh W 4.4 mph7.1 kmh 29.56 in1001.0 mb 0.00 in0.0 mm 0.00 in0.0 mm 0.00 in0.0 mm
01:03 AM 55.2°F12.9°C -30.9°F-34.9°C 1% 1.3 mph WNW2.1 kmh WNW 4.4 mph7.1 kmh 29.56 in1001.0 mb 0.00 in0.0 mm 0.00 in0.0 mm 0.00 in0.0 mm
01:02 AM 55.2°F12.9°C -30.9°F-34.9°C 1% 1.1 mph W1.8 kmh W 4.4 mph7.1 kmh 29.56 in1001.0 mb 0.00 in0.0 mm 0.00 in0.0 mm 0.00 in0.0 mm
01:01 AM 55.2°F12.9°C -30.9°F-34.9°C 1% 1.5 mph WSW2.4 kmh WSW 4.4 mph7.1 kmh 29.56 in1001.0 mb 0.00 in0.0 mm 0.00 in0.0 mm 0.00 in0.0 mm
01:00 AM 55.2°F12.9°C -30.9°F-34.9°C 1% 2.0 mph WSW3.2 kmh WSW 4.7 mph7.6 kmh 29.56 in1001.0 mb 0.00 in0.0 mm 0.00 in0.0 mm 0.00 in0.0 mm
12:59 AM 55.2°F12.9°C -30.9°F-34.9°C 1% 1.3 mph W2.1 kmh W 4.7 mph7.6 kmh 29.56 in1001.0 mb 0.00 in0.0 mm 0.00 in0.0 mm 0.00 in0.0 mm
12:58 AM 55.2°F12.9°C -30.9°F-34.9°C 1% 1.1 mph W1.8 kmh W 6.7 mph10.8 kmh 29.56 in1001.0 mb 0.00 in0.0 mm 0.00 in0.0 mm 0.00 in0.0 mm
12:57 AM 55.2°F12.9°C -30.9°F-34.9°C 1% 1.1 mph W1.8 kmh W 6.7 mph10.8 kmh 29.56 in1001.0 mb 0.00 in0.0 mm 0.00 in0.0 mm 0.00 in0.0 mm
12:56 AM 55.2°F12.9°C -30.9°F-34.9°C 1% 0.8 mph W1.3 kmh W 6.7 mph10.8 kmh 29.56 in1001.0 mb 0.00 in0.0 mm 0.00 in0.0 mm 0.00 in0.0 mm
12:55 AM 55.2°F12.9°C -30.9°F-34.9°C 1% 1.1 mph W1.8 kmh W 6.7 mph10.8 kmh 29.56 in1001.0 mb 0.00 in0.0 mm 0.00 in0.0 mm 0.00 in0.0 mm
12:54 AM 55.4°F13.0°C -30.8°F-34.9°C 1% 1.2 mph W1.9 kmh W 6.7 mph10.8 kmh 29.56 in1001.0 mb 0.00 in0.0 mm 0.00 in0.0 mm 0.00 in0.0 mm
12:53 AM 55.4°F13.0°C -30.8°F-34.9°C 1% 1.7 mph WNW2.7 kmh WNW 6.7 mph10.8 kmh 29.56 in1001.0 mb 0.00 in0.0 mm 0.00 in0.0 mm 0.00 in0.0 mm
12:52 AM 55.4°F13.0°C -30.8°F-34.9°C 1% 2.3 mph WNW3.7 kmh WNW 6.7 mph10.8 kmh 29.56 in1001.0 mb 0.00 in0.0 mm 0.00 in0.0 mm 0.00 in0.0 mm
12:51 AM 55.4°F13.0°C -30.8°F-34.9°C 1% 1.6 mph W2.6 kmh W 6.7 mph10.8 kmh 29.56 in1001.0 mb 0.00 in0.0 mm 0.00 in0.0 mm 0.00 in0.0 mm
12:50 AM 55.4°F13.0°C -30.8°F-34.9°C 1% 2.1 mph W3.4 kmh W 6.7 mph10.8 kmh 29.56 in1001.0 mb 0.00 in0.0 mm 0.00 in0.0 mm 0.00 in0.0 mm
12:49 AM 55.4°F13.0°C -30.8°F-34.9°C 1% 3.4 mph W5.5 kmh W 6.7 mph10.8 kmh 29.56 in1001.0 mb 0.00 in0.0 mm 0.00 in0.0 mm 0.00 in0.0 mm
12:48 AM 55.4°F13.0°C -30.8°F-34.9°C 1% 2.5 mph WSW4.0 kmh WSW 6.7 mph10.8 kmh 29.56 in1001.0 mb 0.00 in0.0 mm 0.00 in0.0 mm 0.00 in0.0 mm
12:47 AM 55.4°F13.0°C -30.8°F-34.9°C 1% 1.0 mph WSW1.6 kmh WSW 6.0 mph9.7 kmh 29.56 in1001.0 mb 0.00 in0.0 mm 0.00 in0.0 mm 0.00 in0.0 mm
12:46 AM 55.4°F13.0°C -30.8°F-34.9°C 1% 1.9 mph WSW3.1 kmh WSW 6.0 mph9.7 kmh 29.56 in1001.0 mb 0.00 in0.0 mm 0.00 in0.0 mm 0.00 in0.0 mm
12:45 AM 55.5°F13.1°C -30.7°F-34.8°C 1% 1.9 mph WSW3.1 kmh WSW 6.0 mph9.7 kmh 29.56 in1001.0 mb 0.00 in0.0 mm 0.00 in0.0 mm 0.00 in0.0 mm
12:44 AM 55.5°F13.1°C -30.7°F-34.8°C 1% 1.4 mph W2.3 kmh W 6.0 mph9.7 kmh 29.56 in1001.0 mb 0.00 in0.0 mm 0.00 in0.0 mm 0.00 in0.0 mm
12:43 AM 55.5°F13.1°C -30.7°F-34.8°C 1% 2.1 mph WSW3.4 kmh WSW 6.0 mph9.7 kmh 29.56 in1001.0 mb 0.00 in0.0 mm 0.00 in0.0 mm 0.00 in0.0 mm
12:42 AM 55.5°F13.1°C -30.7°F-34.8°C 1% 2.2 mph WSW3.5 kmh WSW 6.0 mph9.7 kmh 29.56 in1001.0 mb 0.00 in0.0 mm 0.00 in0.0 mm 0.00 in0.0 mm
12:41 AM 55.5°F13.1°C -30.7°F-34.8°C 1% 1.2 mph W1.9 kmh W 6.0 mph9.7 kmh 29.56 in1001.0 mb 0.00 in0.0 mm 0.00 in0.0 mm 0.00 in0.0 mm
12:40 AM 55.5°F13.1°C -30.7°F-34.8°C 1% 0.7 mph WSW1.1 kmh WSW 4.7 mph7.6 kmh 29.56 in1001.0 mb 0.00 in0.0 mm 0.00 in0.0 mm 0.00 in0.0 mm
12:39 AM 55.5°F13.1°C -30.7°F-34.8°C 1% 1.2 mph WSW1.9 kmh WSW 4.7 mph7.6 kmh 29.56 in1001.0 mb 0.00 in0.0 mm 0.00 in0.0 mm 0.00 in0.0 mm
12:38 AM 55.5°F13.1°C -30.7°F-34.8°C 1% 1.5 mph WSW2.4 kmh WSW 4.7 mph7.6 kmh 29.56 in1001.0 mb 0.00 in0.0 mm 0.00 in0.0 mm 0.00 in0.0 mm
12:37 AM 55.5°F13.1°C -30.7°F-34.8°C 1% 1.5 mph WSW2.4 kmh WSW 4.7 mph7.6 kmh 29.56 in1001.0 mb 0.00 in0.0 mm 0.00 in0.0 mm 0.00 in0.0 mm
12:36 AM 55.5°F13.1°C -30.7°F-34.8°C 1% 0.9 mph W1.4 kmh W 4.7 mph7.6 kmh 29.55 in1000.7 mb 0.00 in0.0 mm 0.00 in0.0 mm 0.00 in0.0 mm
12:35 AM 55.5°F13.1°C -30.7°F-34.8°C 1% 0.8 mph WSW1.3 kmh WSW 8.6 mph13.8 kmh 29.55 in1000.7 mb 0.00 in0.0 mm 0.00 in0.0 mm 0.00 in0.0 mm
12:34 AM 55.5°F13.1°C -30.7°F-34.8°C 1% 1.3 mph W2.1 kmh W 8.6 mph13.8 kmh 29.55 in1000.7 mb 0.00 in0.0 mm 0.00 in0.0 mm 0.00 in0.0 mm
12:33 AM 55.5°F13.1°C -30.7°F-34.8°C 1% 1.8 mph W2.9 kmh W 8.6 mph13.8 kmh 29.55 in1000.7 mb 0.00 in0.0 mm 0.00 in0.0 mm 0.00 in0.0 mm
12:32 AM 55.7°F13.2°C -30.6°F-34.8°C 1% 2.6 mph WSW4.2 kmh WSW 8.6 mph13.8 kmh 29.55 in1000.7 mb 0.00 in0.0 mm 0.00 in0.0 mm 0.00 in0.0 mm
12:31 AM 55.7°F13.2°C -30.6°F-34.8°C 1% 3.2 mph WSW5.1 kmh WSW 8.6 mph13.8 kmh 29.55 in1000.7 mb 0.00 in0.0 mm 0.00 in0.0 mm 0.00 in0.0 mm
12:30 AM 55.5°F13.1°C -30.7°F-34.8°C 1% 2.8 mph W4.5 kmh W 8.6 mph13.8 kmh 29.55 in1000.7 mb 0.00 in0.0 mm 0.00 in0.0 mm 0.00 in0.0 mm
12:29 AM 55.7°F13.2°C -30.6°F-34.8°C 1% 2.1 mph W3.4 kmh W 8.6 mph13.8 kmh 29.55 in1000.7 mb 0.00 in0.0 mm 0.00 in0.0 mm 0.00 in0.0 mm
12:28 AM 55.7°F13.2°C -30.6°F-34.8°C 1% 2.0 mph WSW3.2 kmh WSW 8.6 mph13.8 kmh 29.55 in1000.7 mb 0.00 in0.0 mm 0.00 in0.0 mm 0.00 in0.0 mm
12:27 AM 55.7°F13.2°C -30.6°F-34.8°C 1% 2.2 mph WSW3.5 kmh WSW 8.6 mph13.8 kmh 29.55 in1000.7 mb 0.00 in0.0 mm 0.00 in0.0 mm 0.00 in0.0 mm
12:26 AM 55.7°F13.2°C -30.6°F-34.8°C 1% 3.2 mph WSW5.1 kmh WSW 8.6 mph13.8 kmh 29.55 in1000.7 mb 0.00 in0.0 mm 0.00 in0.0 mm 0.00 in0.0 mm
12:25 AM 55.7°F13.2°C -30.6°F-34.8°C 1% 2.8 mph W4.5 kmh W 8.6 mph13.8 kmh 29.56 in1001.0 mb 0.00 in0.0 mm 0.00 in0.0 mm 0.00 in0.0 mm
12:24 AM 55.5°F13.1°C -30.7°F-34.8°C 1% 3.0 mph W4.8 kmh W 7.0 mph11.3 kmh 29.56 in1001.0 mb 0.00 in0.0 mm 0.00 in0.0 mm 0.00 in0.0 mm
12:23 AM 55.5°F13.1°C -30.7°F-34.8°C 1% 2.8 mph W4.5 kmh W 7.0 mph11.3 kmh 29.56 in1001.0 mb 0.00 in0.0 mm 0.00 in0.0 mm 0.00 in0.0 mm
12:22 AM 55.5°F13.1°C -30.7°F-34.8°C 1% 1.6 mph W2.6 kmh W 7.0 mph11.3 kmh 29.56 in1001.0 mb 0.00 in0.0 mm 0.00 in0.0 mm 0.00 in0.0 mm
12:21 AM 55.5°F13.1°C -30.7°F-34.8°C 1% 1.3 mph WSW2.1 kmh WSW 3.9 mph6.3 kmh 29.56 in1001.0 mb 0.00 in0.0 mm 0.00 in0.0 mm 0.00 in0.0 mm
12:20 AM 55.7°F13.2°C -30.6°F-34.8°C 1% 1.6 mph WSW2.6 kmh WSW 3.9 mph6.3 kmh 29.56 in1001.0 mb 0.00 in0.0 mm 0.00 in0.0 mm 0.00 in0.0 mm
12:19 AM 55.7°F13.2°C -30.6°F-34.8°C 1% 1.4 mph WSW2.3 kmh WSW 7.0 mph11.3 kmh 29.56 in1001.0 mb 0.00 in0.0 mm 0.00 in0.0 mm 0.00 in0.0 mm
12:18 AM 55.7°F13.2°C -30.6°F-34.8°C 1% 1.6 mph WSW2.6 kmh WSW 7.0 mph11.3 kmh 29.56 in1001.0 mb 0.00 in0.0 mm 0.00 in0.0 mm 0.00 in0.0 mm
12:17 AM 55.7°F13.2°C -30.6°F-34.8°C 1% 1.6 mph WSW2.6 kmh WSW 7.0 mph11.3 kmh 29.56 in1001.0 mb 0.00 in0.0 mm 0.00 in0.0 mm 0.00 in0.0 mm
12:16 AM 55.7°F13.2°C -30.6°F-34.8°C 1% 1.6 mph W2.6 kmh W 7.0 mph11.3 kmh 29.56 in1001.0 mb 0.00 in0.0 mm 0.00 in0.0 mm 0.00 in0.0 mm
12:15 AM 55.7°F13.2°C -30.6°F-34.8°C 1% 2.1 mph WSW3.4 kmh WSW 7.0 mph11.3 kmh 29.56 in1001.0 mb 0.00 in0.0 mm 0.00 in0.0 mm 0.00 in0.0 mm
12:14 AM 55.7°F13.2°C -30.6°F-34.8°C 1% 1.6 mph SW2.6 kmh SW 7.0 mph11.3 kmh 29.56 in1001.0 mb 0.00 in0.0 mm 0.00 in0.0 mm 0.00 in0.0 mm
12:13 AM 55.7°F13.2°C -30.6°F-34.8°C 1% 1.2 mph SW1.9 kmh SW 7.0 mph11.3 kmh 29.56 in1001.0 mb 0.00 in0.0 mm 0.00 in0.0 mm 0.00 in0.0 mm
12:12 AM 55.7°F13.2°C -30.6°F-34.8°C 1% 1.1 mph SW1.8 kmh SW 7.0 mph11.3 kmh 29.56 in1001.0 mb 0.00 in0.0 mm 0.00 in0.0 mm 0.00 in0.0 mm
12:11 AM 55.7°F13.2°C -30.6°F-34.8°C 1% 1.3 mph WSW2.1 kmh WSW 7.0 mph11.3 kmh 29.56 in1001.0 mb 0.00 in0.0 mm 0.00 in0.0 mm 0.00 in0.0 mm
12:10 AM 55.7°F13.2°C -30.6°F-34.8°C 1% 2.5 mph SW4.0 kmh SW 7.0 mph11.3 kmh 29.56 in1001.0 mb 0.00 in0.0 mm 0.00 in0.0 mm 0.00 in0.0 mm
12:09 AM 55.7°F13.2°C -30.6°F-34.8°C 1% 2.5 mph WSW4.0 kmh WSW 7.0 mph11.3 kmh 29.56 in1001.0 mb 0.00 in0.0 mm 0.00 in0.0 mm 0.00 in0.0 mm
12:08 AM 55.7°F13.2°C -30.6°F-34.8°C 1% 1.7 mph WSW2.7 kmh WSW 4.4 mph7.1 kmh 29.56 in1001.0 mb 0.00 in0.0 mm 0.00 in0.0 mm 0.00 in0.0 mm
12:07 AM 55.7°F13.2°C -30.6°F-34.8°C 1% 1.1 mph WSW1.8 kmh WSW 5.4 mph8.7 kmh 29.56 in1001.0 mb 0.00 in0.0 mm 0.00 in0.0 mm 0.00 in0.0 mm
12:06 AM 55.7°F13.2°C -30.6°F-34.8°C 1% 1.4 mph WNW2.3 kmh WNW 5.4 mph8.7 kmh 29.56 in1001.0 mb 0.00 in0.0 mm 0.00 in0.0 mm 0.00 in0.0 mm
12:05 AM 55.7°F13.2°C -30.6°F-34.8°C 1% 2.1 mph WNW3.4 kmh WNW 5.4 mph8.7 kmh 29.56 in1001.0 mb 0.00 in0.0 mm 0.00 in0.0 mm 0.00 in0.0 mm
12:04 AM 55.7°F13.2°C -30.6°F-34.8°C 1% 1.7 mph W2.7 kmh W 5.4 mph8.7 kmh 29.56 in1001.0 mb 0.00 in0.0 mm 0.00 in0.0 mm 0.00 in0.0 mm
12:03 AM 55.7°F13.2°C -30.6°F-34.8°C 1% 1.2 mph WSW1.9 kmh WSW 5.4 mph8.7 kmh 29.56 in1001.0 mb 0.00 in0.0 mm 0.00 in0.0 mm 0.00 in0.0 mm
12:02 AM 55.7°F13.2°C -30.6°F-34.8°C 1% 1.6 mph WSW2.6 kmh WSW 5.4 mph8.7 kmh 29.56 in1001.0 mb 0.00 in0.0 mm 0.00 in0.0 mm 0.00 in0.0 mm
12:01 AM 55.7°F13.2°C -30.6°F-34.8°C 1% 1.9 mph W3.1 kmh W 5.4 mph8.7 kmh 29.56 in1001.0 mb 0.00 in0.0 mm 0.00 in0.0 mm 0.00 in0.0 mm
12:00 AM 55.7°F13.2°C -30.6°F-34.8°C 1% 1.9 mph W3.1 kmh W 5.4 mph8.7 kmh 29.56 in1001.0 mb 0.00 in0.0 mm 0.00 in0.0 mm 0.00 in0.0 mm